Observation data for Bootleg on 01/18/2019      Previous  Date  Next       Current Mesonet Observations  Soil Data  Daily Summary Page  Observations in Plain Language
KBO1 180600Z 23012KT 04/M06 A30 RMK A01 T00391061  RH  048%=      5-min Rain = 0
KBO1 180601Z 23012KT 04/M06 A30 RMK A01 T00371061  RH  049%=      5-min Rain = 0
KBO1 180602Z 23013KT 04/M06 A30 RMK A01 T00351062  RH  049%=      5-min Rain = 0
KBO1 180603Z 23013KT 03/M06 A30 RMK A01 T00341061  RH  050%=      5-min Rain = 0
KBO1 180604Z 23014KT 03/M06 A30 RMK A01 T00331061  RH  050%=      5-min Rain = 0
KBO1 180605Z 23013KT 03/M06 A30 RMK A01 T00331061  RH  050%=      5-min Rain = 0
KBO1 180606Z 23013KT 03/M06 A30 RMK A01 T00331061  RH  050%=      5-min Rain = 0
KBO1 180607Z 22013KT 03/M06 A30 RMK A01 T00321060  RH  051%=      5-min Rain = 0
KBO1 180608Z 22013KT 03/M06 A2999 RMK A01 T00301061  RH  051%=      5-min Rain = 0
KBO1 180609Z 22013KT 03/M06 A2999 RMK A01 T00291061  RH  052%=      5-min Rain = 0
KBO1 180610Z 22013KT 03/M06 A2999 RMK A01 T00291060  RH  052%=      5-min Rain = 0
KBO1 180611Z 22012KT 03/M06 A2999 RMK A01 T00281060  RH  052%=      5-min Rain = 0
KBO1 180612Z 22012KT 03/M06 A2999 RMK A01 T00261060  RH  053%=      5-min Rain = 0
KBO1 180613Z 22012KT 03/M06 A2999 RMK A01 T00251060  RH  053%=      5-min Rain = 0
KBO1 180614Z 22012KT 02/M06 A2999 RMK A01 T00241060  RH  054%=      5-min Rain = 0
KBO1 180615Z 22012KT 02/M06 A2999 RMK A01 T00231060  RH  054%=      5-min Rain = 0
KBO1 180616Z 23012KT 02/M06 A2999 RMK A01 T00231060  RH  054%=      5-min Rain = 0
KBO1 180617Z 23012KT 02/M06 A2999 RMK A01 T00231059  RH  055%=      5-min Rain = 0
KBO1 180618Z 23012KT 02/M06 A2999 RMK A01 T00231059  RH  055%=      5-min Rain = 0
KBO1 180619Z 23011KT 02/M06 A2999 RMK A01 T00231059  RH  055%=      5-min Rain = 0
KBO1 180620Z 23012KT 02/M06 A2999 RMK A01 T00241059  RH  055%=      5-min Rain = 0
KBO1 180621Z 23011KT 02/M06 A2999 RMK A01 T00241059  RH  055%=      5-min Rain = 0
KBO1 180622Z 23011KT 02/M06 A2999 RMK A01 T00241058  RH  055%=      5-min Rain = 0
KBO1 180623Z 23011KT 02/M06 A2999 RMK A01 T00241058  RH  055%=      5-min Rain = 0
KBO1 180624Z 23011KT 02/M06 A2999 RMK A01 T00241058  RH  054%=      5-min Rain = 0
KBO1 180625Z 23011KT 03/M06 A2999 RMK A01 T00251058  RH  054%=      5-min Rain = 0
KBO1 180626Z 23011KT 03/M06 A2999 RMK A01 T00251058  RH  054%=      5-min Rain = 0
KBO1 180627Z 23010KT 03/M06 A2998 RMK A01 T00251058  RH  054%=      5-min Rain = 0
KBO1 180628Z 22011KT 02/M06 A2998 RMK A01 T00241058  RH  054%=      5-min Rain = 0
KBO1 180629Z 22011KT 02/M06 A2998 RMK A01 T00231058  RH  055%=      5-min Rain = 0
KBO1 180630Z 22010KT 02/M06 A2998 RMK A01 T00221059  RH  055%=      5-min Rain = 0
KBO1 180631Z 22010KT 02/M06 A2998 RMK A01 T00201059  RH  056%=      5-min Rain = 0
KBO1 180632Z 22010KT 02/M06 A2998 RMK A01 T00181059  RH  056%=      5-min Rain = 0
KBO1 180633Z 22010KT 02/M06 A2998 RMK A01 T00171060  RH  057%=      5-min Rain = 0
KBO1 180634Z 22011KT 02/M06 A2998 RMK A01 T00151060  RH  057%=      5-min Rain = 0
KBO1 180635Z 22011KT 02/M06 A2998 RMK A01 T00151059  RH  058%=      5-min Rain = 0
KBO1 180636Z 22012KT 01/M06 A2997 RMK A01 T00141059  RH  058%=      5-min Rain = 0
KBO1 180637Z 21012KT 01/M06 A2997 RMK A01 T00141058  RH  059%=      5-min Rain = 0
KBO1 180638Z 21012KT 02/M06 A2997 RMK A01 T00151058  RH  059%=      5-min Rain = 0
KBO1 180639Z 21013KT 02/M06 A2996 RMK A01 T00161056  RH  059%=      5-min Rain = 0
KBO1 180640Z 21013KT 02/M06 A2996 RMK A01 T00191055  RH  058%=      5-min Rain = 0
KBO1 180641Z 21013KT 02/M05 A2996 RMK A01 T00221053  RH  058%=      5-min Rain = 0
KBO1 180642Z 21013KT 03/M05 A2996 RMK A01 T00251052  RH  057%=      5-min Rain = 0
KBO1 180643Z 21013KT 03/M05 A2996 RMK A01 T00291050  RH  056%=      5-min Rain = 0
KBO1 180644Z 21013KT 03/M05 A2996 RMK A01 T00321050  RH  055%=      5-min Rain = 0
KBO1 180645Z 22013KT 03/M05 A2996 RMK A01 T00341050  RH  054%=      5-min Rain = 0
KBO1 180646Z 22013KT 04/M05 A2996 RMK A01 T00361050  RH  053%=      5-min Rain = 0
KBO1 180647Z 22013KT 04/M05 A2996 RMK A01 T00371050  RH  053%=      5-min Rain = 0
KBO1 180648Z 22012KT 04/M05 A2996 RMK A01 T00381050  RH  053%=      5-min Rain = 0
KBO1 180649Z 22013KT 04/M05 A2996 RMK A01 T00401049  RH  052%=      5-min Rain = 0
KBO1 180650Z 23012KT 04/M05 A2996 RMK A01 T00431048  RH  052%=      5-min Rain = 0
KBO1 180651Z 22013KT 05/M05 A2996 RMK A01 T00451048  RH  051%=      5-min Rain = 0
KBO1 180652Z 22013KT 05/M05 A2996 RMK A01 T00471047  RH  051%=      5-min Rain = 0
KBO1 180653Z 22013KT 05/M05 A2996 RMK A01 T00511046  RH  049%=      5-min Rain = 0
KBO1 180654Z 22013KT 05/M05 A2995 RMK A01 T00541047  RH  048%=      5-min Rain = 0
KBO1 180655Z 22013KT 06/M05 A2995 RMK A01 T00551047  RH  048%=      5-min Rain = 0
KBO1 180656Z 23013KT 06/M05 A2995 RMK A01 T00551047  RH  048%=      5-min Rain = 0
KBO1 180657Z 23014KT 06/M05 A2996 RMK A01 T00571047  RH  047%=      5-min Rain = 0
KBO1 180658Z 23014KT 06/M05 A2996 RMK A01 T00581047  RH  047%=      5-min Rain = 0
KBO1 180659Z 23015KT 06/M05 A2996 RMK A01 T00591048  RH  046%=      5-min Rain = 0
KBO1 180700Z 23015KT 06/M05 A2996 RMK A01 T00601048  RH  046%=      5-min Rain = 0
KBO1 180701Z 24013KT 06/M05 A2996 RMK A01 T00601048  RH  046%=      5-min Rain = 0
KBO1 180702Z 24015KT 06/M05 A2996 RMK A01 T00591048  RH  046%=      5-min Rain = 0
KBO1 180703Z 24015KT 06/M05 A2996 RMK A01 T00581049  RH  046%=      5-min Rain = 0
KBO1 180704Z 24014KT 06/M05 A2996 RMK A01 T00581049  RH  046%=      5-min Rain = 0
KBO1 180705Z 24014KT 06/M05 A2996 RMK A01 T00581049  RH  046%=      5-min Rain = 0
KBO1 180706Z 24013KT 06/M05 A2996 RMK A01 T00581049  RH  046%=      5-min Rain = 0
KBO1 180707Z 24013KT 06/M05 A2996 RMK A01 T00571049  RH  046%=      5-min Rain = 0
KBO1 180708Z 24014KT 06/M05 A2996 RMK A01 T00561049  RH  047%=      5-min Rain = 0
KBO1 180709Z 25013KT 06/M05 A2996 RMK A01 T00551050  RH  047%=      5-min Rain = 0
KBO1 180710Z 24014KT 05/M05 A2996 RMK A01 T00541050  RH  047%=      5-min Rain = 0
KBO1 180711Z 24014KT 05/M05 A2996 RMK A01 T00521051  RH  047%=      5-min Rain = 0
KBO1 180712Z 24013KT 05/M05 A2996 RMK A01 T00521051  RH  047%=      5-min Rain = 0
KBO1 180713Z 24013KT 05/M05 A2996 RMK A01 T00521051  RH  047%=      5-min Rain = 0
KBO1 180714Z 24013KT 05/M05 A2997 RMK A01 T00511051  RH  048%=      5-min Rain = 0
KBO1 180715Z 25013KT 05/M05 A2997 RMK A01 T00501051  RH  048%=      5-min Rain = 0
KBO1 180716Z 25013KT 05/M05 A2996 RMK A01 T00491051  RH  048%=      5-min Rain = 0
KBO1 180717Z 25014KT 05/M05 A2996 RMK A01 T00491051  RH  048%=      5-min Rain = 0
KBO1 180718Z 25014KT 05/M05 A2996 RMK A01 T00481051  RH  049%=      5-min Rain = 0
KBO1 180719Z 25014KT 05/M05 A2996 RMK A01 T00471052  RH  049%=      5-min Rain = 0
KBO1 180720Z 25014KT 05/M05 A2996 RMK A01 T00461052  RH  049%=      5-min Rain = 0
KBO1 180721Z 25014KT 04/M05 A2996 RMK A01 T00441053  RH  049%=      5-min Rain = 0
KBO1 180722Z 25014KT 04/M05 A2996 RMK A01 T00441053  RH  050%=      5-min Rain = 0
KBO1 180723Z 25015KT 04/M05 A2996 RMK A01 T00441052  RH  050%=      5-min Rain = 0
KBO1 180724Z 25015KT 04/M05 A2996 RMK A01 T00431052  RH  050%=      5-min Rain = 0
KBO1 180725Z 25014KT 04/M05 A2996 RMK A01 T00441052  RH  050%=      5-min Rain = 0
KBO1 180726Z 25014KT 04/M05 A2995 RMK A01 T00431052  RH  050%=      5-min Rain = 0
KBO1 180727Z 25013KT 04/M05 A2995 RMK A01 T00431052  RH  050%=      5-min Rain = 0
KBO1 180728Z 25013KT 04/M05 A2995 RMK A01 T00431052  RH  050%=      5-min Rain = 0
KBO1 180729Z 25013KT 04/M05 A2995 RMK A01 T00431052  RH  050%=      5-min Rain = 0
KBO1 180730Z 25013KT 04/M05 A2995 RMK A01 T00421051  RH  050%=      5-min Rain = 0
KBO1 180731Z 25013KT 04/M05 A2995 RMK A01 T00421052  RH  051%=      5-min Rain = 0
KBO1 180732Z 24014KT 04/M05 A2995 RMK A01 T00421052  RH  051%=      5-min Rain = 0
KBO1 180733Z 25014KT 04/M05 A2995 RMK A01 T00421051  RH  051%=      5-min Rain = 0
KBO1 180734Z 24013KT 04/M05 A2995 RMK A01 T00421051  RH  051%=      5-min Rain = 0
KBO1 180735Z 24013KT 04/M05 A2995 RMK A01 T00421051  RH  051%=      5-min Rain = 0
KBO1 180736Z 25013KT 04/M05 A2994 RMK A01 T00421051  RH  050%=      5-min Rain = 0
KBO1 180737Z 24014KT 04/M05 A2994 RMK A01 T00421052  RH  050%=      5-min Rain = 0
KBO1 180738Z 24014KT 04/M05 A2994 RMK A01 T00421051  RH  051%=      5-min Rain = 0
KBO1 180739Z 25013KT 04/M05 A2994 RMK A01 T00421051  RH  051%=      5-min Rain = 0
KBO1 180740Z 25013KT 04/M05 A2994 RMK A01 T00421051  RH  051%=      5-min Rain = 0
KBO1 180741Z 25013KT 04/M05 A2994 RMK A01 T00421051  RH  051%=      5-min Rain = 0
KBO1 180742Z 25013KT 04/M05 A2994 RMK A01 T00421051  RH  051%=      5-min Rain = 0
KBO1 180743Z 25013KT 04/M05 A2994 RMK A01 T00421051  RH  051%=      5-min Rain = 0
KBO1 180744Z 25013KT 04/M05 A2994 RMK A01 T00421051  RH  051%=      5-min Rain = 0
KBO1 180745Z 25012KT 04/M05 A2994 RMK A01 T00411051  RH  051%=      5-min Rain = 0
KBO1 180746Z 24013KT 04/M05 A2994 RMK A01 T00411051  RH  051%=      5-min Rain = 0
KBO1 180747Z 24013KT 04/M05 A2994 RMK A01 T00411051  RH  051%=      5-min Rain = 0
KBO1 180748Z 24013KT 04/M05 A2994 RMK A01 T00421050  RH  051%=      5-min Rain = 0
KBO1 180749Z 25013KT 04/M05 A2993 RMK A01 T00431050  RH  051%=      5-min Rain = 0
KBO1 180750Z 25012KT 04/M05 A2993 RMK A01 T00441051  RH  050%=      5-min Rain = 0
KBO1 180751Z 25012KT 04/M05 A2993 RMK A01 T00441051  RH  050%=      5-min Rain = 0
KBO1 180752Z 25013KT 04/M05 A2993 RMK A01 T00441051  RH  050%=      5-min Rain = 0
KBO1 180753Z 25014KT 04/M05 A2993 RMK A01 T00441050  RH  050%=      5-min Rain = 0
KBO1 180754Z 25014KT 04/M05 A2993 RMK A01 T00441050  RH  050%=      5-min Rain = 0
KBO1 180755Z 25014KT 05/M05 A2993 RMK A01 T00451050  RH  050%=      5-min Rain = 0
KBO1 180756Z 25014KT 05/M05 A2993 RMK A01 T00461050  RH  050%=      5-min Rain = 0
KBO1 180757Z 24014KT 05/M05 A2993 RMK A01 T00471049  RH  050%=      5-min Rain = 0
KBO1 180758Z 24015KT 05/M05 A2993 RMK A01 T00471050  RH  049%=      5-min Rain = 0
KBO1 180759Z 24014KT 05/M05 A2993 RMK A01 T00481050  RH  049%=      5-min Rain = 0
KBO1 180800Z 24015KT 05/M05 A2993 RMK A01 T00481049  RH  049%=      5-min Rain = 0
KBO1 180801Z 24014KT 05/M05 A2993 RMK A01 T00491049  RH  049%=      5-min Rain = 0
KBO1 180802Z 24014KT 05/M05 A2993 RMK A01 T00491049  RH  049%=      5-min Rain = 0
KBO1 180803Z 24013KT 05/M05 A2993 RMK A01 T00491049  RH  049%=      5-min Rain = 0
KBO1 180804Z 24013KT 05/M05 A2993 RMK A01 T00481049  RH  049%=      5-min Rain = 0
KBO1 180805Z 24013KT 05/M05 A2993 RMK A01 T00481049  RH  050%=      5-min Rain = 0
KBO1 180806Z 24013KT 05/M05 A2993 RMK A01 T00471048  RH  050%=      5-min Rain = 0
KBO1 180807Z 24013KT 05/M05 A2993 RMK A01 T00461049  RH  050%=      5-min Rain = 0
KBO1 180808Z 24013KT 05/M05 A2993 RMK A01 T00461048  RH  051%=      5-min Rain = 0
KBO1 180809Z 24012KT 05/M05 A2993 RMK A01 T00461048  RH  051%=      5-min Rain = 0
KBO1 180810Z 24013KT 05/M05 A2993 RMK A01 T00451048  RH  051%=      5-min Rain = 0
KBO1 180811Z 24013KT 04/M05 A2993 RMK A01 T00441048  RH  051%=      5-min Rain = 0
KBO1 180812Z 24013KT 05/M05 A2993 RMK A01 T00451048  RH  051%=      5-min Rain = 0
KBO1 180813Z 24012KT 05/M05 A2993 RMK A01 T00451048  RH  051%=      5-min Rain = 0
KBO1 180814Z 24013KT 05/M05 A2993 RMK A01 T00461047  RH  051%=      5-min Rain = 0
KBO1 180815Z 24013KT 05/M05 A2993 RMK A01 T00461047  RH  051%=      5-min Rain = 0
KBO1 180816Z 24013KT 05/M05 A2993 RMK A01 T00481046  RH  051%=      5-min Rain = 0
KBO1 180817Z 24013KT 05/M05 A2993 RMK A01 T00491045  RH  050%=      5-min Rain = 0
KBO1 180818Z 24014KT 05/M05 A2993 RMK A01 T00511045  RH  050%=      5-min Rain = 0
KBO1 180819Z 24014KT 05/M04 A2993 RMK A01 T00531044  RH  050%=      5-min Rain = 0
KBO1 180820Z 24014KT 06/M04 A2993 RMK A01 T00551044  RH  049%=      5-min Rain = 0
KBO1 180821Z 24015KT 06/M04 A2993 RMK A01 T00561044  RH  048%=      5-min Rain = 0
KBO1 180822Z 24015KT 06/M04 A2993 RMK A01 T00571044  RH  048%=      5-min Rain = 0
KBO1 180823Z 24014KT 06/M04 A2993 RMK A01 T00591044  RH  048%=      5-min Rain = 0
KBO1 180824Z 24015KT 06/M05 A2993 RMK A01 T00591045  RH  047%=      5-min Rain = 0
KBO1 180825Z 24015KT 06/M04 A2993 RMK A01 T00591044  RH  047%=      5-min Rain = 0
KBO1 180826Z 24014KT 06/M04 A2993 RMK A01 T00591044  RH  047%=      5-min Rain = 0
KBO1 180827Z 24014KT 06/M05 A2993 RMK A01 T00591045  RH  047%=      5-min Rain = 0
KBO1 180828Z 23013KT 06/M05 A2993 RMK A01 T00581045  RH  048%=      5-min Rain = 0
KBO1 180829Z 23013KT 06/M05 A2993 RMK A01 T00561045  RH  048%=      5-min Rain = 0
KBO1 180830Z 23013KT 06/M05 A2993 RMK A01 T00551046  RH  048%=      5-min Rain = 0
KBO1 180831Z 23013KT 05/M05 A2993 RMK A01 T00531046  RH  049%=      5-min Rain = 0
KBO1 180832Z 23013KT 05/M05 A2993 RMK A01 T00511046  RH  049%=      5-min Rain = 0
KBO1 180833Z 23013KT 05/M05 A2993 RMK A01 T00501046  RH  050%=      5-min Rain = 0
KBO1 180834Z 23013KT 05/M05 A2993 RMK A01 T00481046  RH  050%=      5-min Rain = 0
KBO1 180835Z 23013KT 05/M05 A2993 RMK A01 T00471046  RH  051%=      5-min Rain = 0
KBO1 180836Z 23013KT 05/M05 A2993 RMK A01 T00461047  RH  051%=      5-min Rain = 0
KBO1 180837Z 23013KT 05/M05 A2993 RMK A01 T00451046  RH  051%=      5-min Rain = 0
KBO1 180838Z 23014KT 05/M05 A2993 RMK A01 T00451046  RH  052%=      5-min Rain = 0
KBO1 180839Z 23014KT 04/M05 A2992 RMK A01 T00441047  RH  052%=      5-min Rain = 0
KBO1 180840Z 23013KT 04/M05 A2992 RMK A01 T00441047  RH  052%=      5-min Rain = 0
KBO1 180841Z 23014KT 04/M05 A2992 RMK A01 T00441047  RH  051%=      5-min Rain = 0
KBO1 180842Z 23014KT 05/M05 A2992 RMK A01 T00451048  RH  051%=      5-min Rain = 0
KBO1 180843Z 23016KT 05/M05 A2992 RMK A01 T00461048  RH  051%=      5-min Rain = 0
KBO1 180844Z 23016KT 05/M05 A2992 RMK A01 T00481048  RH  050%=      5-min Rain = 0
KBO1 180845Z 23016KT 05/M05 A2992 RMK A01 T00491048  RH  049%=      5-min Rain = 0
KBO1 180846Z 24017KT 05/M05 A2992 RMK A01 T00501049  RH  049%=      5-min Rain = 0
KBO1 180847Z 24016KT 05/M05 A2992 RMK A01 T00511049  RH  048%=      5-min Rain = 0
KBO1 180848Z 24016KT 05/M05 A2992 RMK A01 T00521049  RH  048%=      5-min Rain = 0
KBO1 180849Z 23016KT 05/M05 A2992 RMK A01 T00511049  RH  048%=      5-min Rain = 0
KBO1 180850Z 23016KT 05/M05 A2992 RMK A01 T00511050  RH  048%=      5-min Rain = 0
KBO1 180851Z 23016KT 05/M05 A2992 RMK A01 T00511049  RH  048%=      5-min Rain = 0
KBO1 180852Z 23016KT 05/M05 A2992 RMK A01 T00511049  RH  048%=      5-min Rain = 0
KBO1 180853Z 23017KT 05/M05 A2992 RMK A01 T00521049  RH  048%=      5-min Rain = 0
KBO1 180854Z 23016KT 05/M05 A2992 RMK A01 T00521049  RH  048%=      5-min Rain = 0
KBO1 180855Z 23017KT 05/M05 A2992 RMK A01 T00521050  RH  048%=      5-min Rain = 0
KBO1 180856Z 23016KT 05/M05 A2992 RMK A01 T00521050  RH  048%=      5-min Rain = 0
KBO1 180857Z 23016KT 05/M05 A2992 RMK A01 T00521050  RH  048%=      5-min Rain = 0
KBO1 180858Z 23017KT 05/M05 A2992 RMK A01 T00521050  RH  048%=      5-min Rain = 0
KBO1 180859Z 23017KT 05/M05 A2992 RMK A01 T00521050  RH  048%=      5-min Rain = 0
KBO1 180900Z 23017KT 05/M05 A2992 RMK A01 T00511050  RH  048%=      5-min Rain = 0
KBO1 180901Z 23017KT 05/M05 A2992 RMK A01 T00511050  RH  048%=      5-min Rain = 0
KBO1 180902Z 23017KT 05/M05 A2992 RMK A01 T00511050  RH  048%=      5-min Rain = 0
KBO1 180903Z 23016KT 05/M05 A2992 RMK A01 T00501050  RH  048%=      5-min Rain = 0
KBO1 180904Z 23016KT 05/M05 A2992 RMK A01 T00501050  RH  048%=      5-min Rain = 0
KBO1 180905Z 23016KT 05/M05 A2992 RMK A01 T00511049  RH  048%=      5-min Rain = 0
KBO1 180906Z 23016KT 05/M05 A2992 RMK A01 T00501050  RH  048%=      5-min Rain = 0
KBO1 180907Z 23015KT 05/M05 A2992 RMK A01 T00501050  RH  048%=      5-min Rain = 0
KBO1 180908Z 23017KT 05/M05 A2992 RMK A01 T00501049  RH  049%=      5-min Rain = 0
KBO1 180909Z 23016KT 05/M05 A2992 RMK A01 T00501049  RH  049%=      5-min Rain = 0
KBO1 180910Z 23016KT 05/M05 A2992 RMK A01 T00501049  RH  049%=      5-min Rain = 0
KBO1 180911Z 23015KT 05/M05 A2992 RMK A01 T00501049  RH  049%=      5-min Rain = 0
KBO1 180912Z 23015KT 05/M05 A2991 RMK A01 T00491049  RH  049%=      5-min Rain = 0
KBO1 180913Z 23015KT 05/M05 A2991 RMK A01 T00491049  RH  049%=      5-min Rain = 0
KBO1 180914Z 23015KT 05/M05 A2991 RMK A01 T00501049  RH  049%=      5-min Rain = 0
KBO1 180915Z 23014KT 05/M05 A2991 RMK A01 T00491049  RH  049%=      5-min Rain = 0
KBO1 180916Z 23014KT 05/M05 A2991 RMK A01 T00481049  RH  049%=      5-min Rain = 0
KBO1 180917Z 23014KT 05/M05 A2991 RMK A01 T00481049  RH  050%=      5-min Rain = 0
KBO1 180918Z 23014KT 05/M05 A2991 RMK A01 T00481049  RH  050%=      5-min Rain = 0
KBO1 180919Z 23014KT 05/M05 A2991 RMK A01 T00471049  RH  050%=      5-min Rain = 0
KBO1 180920Z 23014KT 05/M05 A2991 RMK A01 T00461049  RH  050%=      5-min Rain = 0
KBO1 180921Z 23013KT 05/M05 A2991 RMK A01 T00461048  RH  050%=      5-min Rain = 0
KBO1 180922Z 23014KT 05/M05 A2991 RMK A01 T00451049  RH  051%=      5-min Rain = 0
KBO1 180923Z 23014KT 05/M05 A2991 RMK A01 T00451048  RH  051%=      5-min Rain = 0
KBO1 180924Z 23015KT 05/M05 A2991 RMK A01 T00451048  RH  051%=      5-min Rain = 0
KBO1 180925Z 23015KT 04/M05 A2991 RMK A01 T00441048  RH  051%=      5-min Rain = 0
KBO1 180926Z 23014KT 05/M05 A2991 RMK A01 T00451047  RH  051%=      5-min Rain = 0
KBO1 180927Z 23014KT 05/M05 A2991 RMK A01 T00451047  RH  051%=      5-min Rain = 0
KBO1 180928Z 23014KT 05/M05 A2991 RMK A01 T00461047  RH  051%=      5-min Rain = 0
KBO1 180929Z 23013KT 05/M05 A2991 RMK A01 T00461046  RH  051%=      5-min Rain = 0
KBO1 180930Z 23016KT 05/M05 A2991 RMK A01 T00471046  RH  051%=      5-min Rain = 0
KBO1 180931Z 23013KT 05/M05 A2991 RMK A01 T00481045  RH  051%=      5-min Rain = 0
KBO1 180932Z 23014KT 05/M05 A2991 RMK A01 T00491045  RH  051%=      5-min Rain = 0
KBO1 180933Z 23014KT 05/M05 A2991 RMK A01 T00491045  RH  051%=      5-min Rain = 0
KBO1 180934Z 23014KT 05/M05 A2991 RMK A01 T00491045  RH  050%=      5-min Rain = 0
KBO1 180935Z 23014KT 05/M05 A2991 RMK A01 T00501045  RH  050%=      5-min Rain = 0
KBO1 180936Z 23014KT 05/M05 A2991 RMK A01 T00501045  RH  051%=      5-min Rain = 0
KBO1 180937Z 23014KT 05/M04 A2991 RMK A01 T00501044  RH  051%=      5-min Rain = 0
KBO1 180938Z 22014KT 05/M04 A2991 RMK A01 T00501044  RH  051%=      5-min Rain = 0
KBO1 180939Z 23016KT 05/M04 A2991 RMK A01 T00501044  RH  051%=      5-min Rain = 0
KBO1 180940Z 23015KT 05/M04 A2991 RMK A01 T00511043  RH  050%=      5-min Rain = 0
KBO1 180941Z 23015KT 05/M04 A299 RMK A01 T00531043  RH  050%=      5-min Rain = 0
KBO1 180942Z 23014KT 05/M04 A299 RMK A01 T00531043  RH  050%=      5-min Rain = 0
KBO1 180943Z 23013KT 05/M04 A299 RMK A01 T00541043  RH  050%=      5-min Rain = 0
KBO1 180944Z 23014KT 05/M04 A299 RMK A01 T00541043  RH  050%=      5-min Rain = 0
KBO1 180945Z 23014KT 05/M04 A299 RMK A01 T00541043  RH  050%=      5-min Rain = 0
KBO1 180946Z 22015KT 05/M04 A299 RMK A01 T00541043  RH  050%=      5-min Rain = 0
KBO1 180947Z 23014KT 05/M04 A2989 RMK A01 T00541043  RH  050%=      5-min Rain = 0
KBO1 180948Z 23014KT 06/M04 A2989 RMK A01 T00551042  RH  050%=      5-min Rain = 0
KBO1 180949Z 23014KT 06/M04 A2989 RMK A01 T00561041  RH  049%=      5-min Rain = 0
KBO1 180950Z 23012KT 06/M04 A2989 RMK A01 T00571042  RH  049%=      5-min Rain = 0
KBO1 180951Z 23013KT 06/M04 A2989 RMK A01 T00571042  RH  049%=      5-min Rain = 0
KBO1 180952Z 22013KT 06/M04 A2989 RMK A01 T00561043  RH  049%=      5-min Rain = 0
KBO1 180953Z 23013KT 06/M04 A2989 RMK A01 T00551043  RH  049%=      5-min Rain = 0
KBO1 180954Z 22013KT 05/M04 A2989 RMK A01 T00541043  RH  050%=      5-min Rain = 0
KBO1 180955Z 22013KT 05/M04 A2989 RMK A01 T00541043  RH  050%=      5-min Rain = 0
KBO1 180956Z 23012KT 05/M04 A2989 RMK A01 T00531043  RH  050%=      5-min Rain = 0
KBO1 180957Z 23012KT 05/M04 A2989 RMK A01 T00521043  RH  050%=      5-min Rain = 0
KBO1 180958Z 23013KT 05/M04 A2989 RMK A01 T00521043  RH  050%=      5-min Rain = 0
KBO1 180959Z 23013KT 05/M04 A2989 RMK A01 T00521043  RH  050%=      5-min Rain = 0
KBO1 181000Z 23013KT 05/M04 A2989 RMK A01 T00531043  RH  050%=      5-min Rain = 0
KBO1 181001Z 23013KT 06/M04 A2989 RMK A01 T00551042  RH  050%=      5-min Rain = 0
KBO1 181002Z 23013KT 05/M04 A2988 RMK A01 T00541042  RH  050%=      5-min Rain = 0
KBO1 181003Z 23011KT 05/M04 A2988 RMK A01 T00541043  RH  050%=      5-min Rain = 0
KBO1 181004Z 23011KT 05/M04 A2989 RMK A01 T00541042  RH  050%=      5-min Rain = 0
KBO1 181005Z 23011KT 05/M04 A2989 RMK A01 T00531042  RH  050%=      5-min Rain = 0
KBO1 181006Z 23011KT 05/M04 A2989 RMK A01 T00521043  RH  050%=      5-min Rain = 0
KBO1 181007Z 23010KT 05/M04 A2989 RMK A01 T00511043  RH  051%=      5-min Rain = 0
KBO1 181008Z 23011KT 05/M04 A2989 RMK A01 T00501043  RH  051%=      5-min Rain = 0
KBO1 181009Z 23011KT 05/M04 A2989 RMK A01 T00501043  RH  051%=      5-min Rain = 0
KBO1 181010Z 22011KT 05/M04 A2989 RMK A01 T00491042  RH  051%=      5-min Rain = 0
KBO1 181011Z 23010KT 05/M04 A2988 RMK A01 T00491042  RH  052%=      5-min Rain = 0
KBO1 181012Z 22011KT 05/M04 A2988 RMK A01 T00481042  RH  052%=      5-min Rain = 0
KBO1 181013Z 23010KT 05/M04 A2988 RMK A01 T00481042  RH  052%=      5-min Rain = 0
KBO1 181014Z 23010KT 05/M04 A2988 RMK A01 T00491042  RH  052%=      5-min Rain = 0
KBO1 181015Z 23011KT 05/M04 A2988 RMK A01 T00481042  RH  052%=      5-min Rain = 0
KBO1 181016Z 22011KT 05/M04 A2988 RMK A01 T00481042  RH  052%=      5-min Rain = 0
KBO1 181017Z 23011KT 05/M04 A2988 RMK A01 T00481041  RH  052%=      5-min Rain = 0
KBO1 181018Z 23011KT 05/M04 A2988 RMK A01 T00481040  RH  053%=      5-min Rain = 0
KBO1 181019Z 22011KT 05/M04 A2988 RMK A01 T00481040  RH  053%=      5-min Rain = 0
KBO1 181020Z 23012KT 05/M04 A2987 RMK A01 T00491040  RH  053%=      5-min Rain = 0
KBO1 181021Z 23011KT 05/M04 A2987 RMK A01 T00511038  RH  052%=      5-min Rain = 0
KBO1 181022Z 22012KT 05/M04 A2987 RMK A01 T00521038  RH  052%=      5-min Rain = 0
KBO1 181023Z 23011KT 05/M04 A2987 RMK A01 T00531038  RH  052%=      5-min Rain = 0
KBO1 181024Z 23010KT 05/M04 A2986 RMK A01 T00541038  RH  052%=      5-min Rain = 0
KBO1 181025Z 23010KT 05/M04 A2986 RMK A01 T00541038  RH  052%=      5-min Rain = 0
KBO1 181026Z 23011KT 05/M04 A2986 RMK A01 T00541038  RH  052%=      5-min Rain = 0
KBO1 181027Z 23011KT 05/M04 A2986 RMK A01 T00541037  RH  052%=      5-min Rain = 0
KBO1 181028Z 23012KT 06/M04 A2986 RMK A01 T00551037  RH  052%=      5-min Rain = 0
KBO1 181029Z 23011KT 06/M04 A2986 RMK A01 T00561036  RH  052%=      5-min Rain = 0
KBO1 181030Z 23013KT 06/M04 A2986 RMK A01 T00561036  RH  052%=      5-min Rain = 0
KBO1 181031Z 23012KT 06/M04 A2986 RMK A01 T00561036  RH  052%=      5-min Rain = 0
KBO1 181032Z 23011KT 06/M04 A2986 RMK A01 T00561036  RH  052%=      5-min Rain = 0
KBO1 181033Z 22012KT 06/M04 A2986 RMK A01 T00571035  RH  051%=      5-min Rain = 0
KBO1 181034Z 23012KT 06/M04 A2986 RMK A01 T00571035  RH  051%=      5-min Rain = 0
KBO1 181035Z 23012KT 06/M04 A2986 RMK A01 T00581035  RH  051%=      5-min Rain = 0
KBO1 181036Z 23013KT 06/M04 A2986 RMK A01 T00581035  RH  051%=      5-min Rain = 0
KBO1 181037Z 23012KT 06/M04 A2986 RMK A01 T00581035  RH  051%=      5-min Rain = 0
KBO1 181038Z 22011KT 06/M04 A2986 RMK A01 T00571035  RH  052%=      5-min Rain = 0
KBO1 181039Z 22010KT 06/M04 A2986 RMK A01 T00561035  RH  052%=      5-min Rain = 0
KBO1 181040Z 22010KT 06/M04 A2986 RMK A01 T00551035  RH  052%=      5-min Rain = 0
KBO1 181041Z 22010KT 05/M04 A2986 RMK A01 T00541036  RH  052%=      5-min Rain = 0
KBO1 181042Z 22009KT 05/M04 A2985 RMK A01 T00531036  RH  053%=      5-min Rain = 0
KBO1 181043Z 22009KT 05/M04 A2985 RMK A01 T00521036  RH  053%=      5-min Rain = 0
KBO1 181044Z 22009KT 05/M04 A2985 RMK A01 T00511036  RH  053%=      5-min Rain = 0
KBO1 181045Z 22009KT 05/M04 A2985 RMK A01 T00501036  RH  054%=      5-min Rain = 0
KBO1 181046Z 21008KT 05/M04 A2985 RMK A01 T00491036  RH  054%=      5-min Rain = 0
KBO1 181047Z 21008KT 05/M04 A2985 RMK A01 T00481036  RH  054%=      5-min Rain = 0
KBO1 181048Z 21009KT 05/M04 A2985 RMK A01 T00461037  RH  055%=      5-min Rain = 0
KBO1 181049Z 21010KT 05/M04 A2985 RMK A01 T00451036  RH  055%=      5-min Rain = 0
KBO1 181050Z 21010KT 05/M04 A2985 RMK A01 T00451036  RH  056%=      5-min Rain = 0
KBO1 181051Z 21011KT 05/M04 A2985 RMK A01 T00451035  RH  056%=      5-min Rain = 0
KBO1 181052Z 22011KT 05/M04 A2986 RMK A01 T00471035  RH  055%=      5-min Rain = 0
KBO1 181053Z 22010KT 05/M04 A2986 RMK A01 T00481035  RH  055%=      5-min Rain = 0
KBO1 181054Z 22010KT 05/M04 A2986 RMK A01 T00481035  RH  055%=      5-min Rain = 0
KBO1 181055Z 22009KT 05/M04 A2986 RMK A01 T00491035  RH  055%=      5-min Rain = 0
KBO1 181056Z 23009KT 05/M04 A2986 RMK A01 T00491035  RH  055%=      5-min Rain = 0
KBO1 181057Z 23009KT 05/M04 A2986 RMK A01 T00491035  RH  054%=      5-min Rain = 0
KBO1 181058Z 23009KT 05/M04 A2986 RMK A01 T00491035  RH  054%=      5-min Rain = 0
KBO1 181059Z 22009KT 05/M04 A2986 RMK A01 T00491035  RH  054%=      5-min Rain = 0
KBO1 181100Z 22010KT 05/M04 A2986 RMK A01 T00491035  RH  055%=      5-min Rain = 0
KBO1 181101Z 22010KT 05/M04 A2986 RMK A01 T00481035  RH  055%=      5-min Rain = 0
KBO1 181102Z 22010KT 05/M04 A2985 RMK A01 T00481035  RH  055%=      5-min Rain = 0
KBO1 181103Z 22010KT 05/M04 A2985 RMK A01 T00481035  RH  055%=      5-min Rain = 0
KBO1 181104Z 22010KT 05/M04 A2985 RMK A01 T00481035  RH  055%=      5-min Rain = 0
KBO1 181105Z 22010KT 05/M04 A2985 RMK A01 T00471036  RH  055%=      5-min Rain = 0
KBO1 181106Z 22010KT 05/M04 A2985 RMK A01 T00471035  RH  055%=      5-min Rain = 0
KBO1 181107Z 22010KT 05/M04 A2985 RMK A01 T00471035  RH  055%=      5-min Rain = 0
KBO1 181108Z 23011KT 05/M03 A2985 RMK A01 T00481034  RH  055%=      5-min Rain = 0
KBO1 181109Z 23011KT 05/M03 A2985 RMK A01 T00491034  RH  055%=      5-min Rain = 0
KBO1 181110Z 23011KT 05/M03 A2985 RMK A01 T00511034  RH  054%=      5-min Rain = 0
KBO1 181111Z 23012KT 05/M03 A2985 RMK A01 T00521034  RH  054%=      5-min Rain = 0
KBO1 181112Z 23012KT 05/M03 A2985 RMK A01 T00531033  RH  054%=      5-min Rain = 0
KBO1 181113Z 23012KT 06/M03 A2985 RMK A01 T00551033  RH  053%=      5-min Rain = 0
KBO1 181114Z 23011KT 06/M03 A2985 RMK A01 T00551033  RH  053%=      5-min Rain = 0
KBO1 181115Z 23011KT 06/M03 A2985 RMK A01 T00551033  RH  053%=      5-min Rain = 0
KBO1 181116Z 23011KT 05/M03 A2985 RMK A01 T00541033  RH  053%=      5-min Rain = 0
KBO1 181117Z 23012KT 05/M03 A2985 RMK A01 T00541033  RH  053%=      5-min Rain = 0
KBO1 181118Z 23011KT 05/M03 A2985 RMK A01 T00541033  RH  053%=      5-min Rain = 0
KBO1 181119Z 23011KT 05/M03 A2984 RMK A01 T00541033  RH  054%=      5-min Rain = 0
KBO1 181120Z 23012KT 05/M03 A2984 RMK A01 T00531033  RH  054%=      5-min Rain = 0
KBO1 181121Z 23012KT 05/M03 A2984 RMK A01 T00531033  RH  054%=      5-min Rain = 0
KBO1 181122Z 23012KT 05/M03 A2984 RMK A01 T00531033  RH  054%=      5-min Rain = 0
KBO1 181123Z 23012KT 05/M03 A2984 RMK A01 T00521033  RH  054%=      5-min Rain = 0
KBO1 181124Z 23012KT 05/M03 A2984 RMK A01 T00521033  RH  054%=      5-min Rain = 0
KBO1 181125Z 24012KT 05/M03 A2984 RMK A01 T00511033  RH  055%=      5-min Rain = 0
KBO1 181126Z 24011KT 05/M03 A2984 RMK A01 T00511033  RH  055%=      5-min Rain = 0
KBO1 181127Z 24012KT 05/M03 A2984 RMK A01 T00511033  RH  055%=      5-min Rain = 0
KBO1 181128Z 24012KT 05/M03 A2984 RMK A01 T00501033  RH  055%=      5-min Rain = 0
KBO1 181129Z 23012KT 05/M03 A2984 RMK A01 T00501033  RH  055%=      5-min Rain = 0
KBO1 181130Z 23012KT 05/M03 A2984 RMK A01 T00501033  RH  055%=      5-min Rain = 0
KBO1 181131Z 23012KT 05/M03 A2984 RMK A01 T00491033  RH  055%=      5-min Rain = 0
KBO1 181132Z 23013KT 05/M03 A2983 RMK A01 T00491033  RH  055%=      5-min Rain = 0
KBO1 181133Z 23013KT 05/M03 A2983 RMK A01 T00491033  RH  055%=      5-min Rain = 0
KBO1 181134Z 23013KT 05/M03 A2983 RMK A01 T00491033  RH  056%=      5-min Rain = 0
KBO1 181135Z 23014KT 05/M03 A2983 RMK A01 T00491032  RH  056%=      5-min Rain = 0
KBO1 181136Z 23014KT 05/M03 A2983 RMK A01 T00491032  RH  056%=      5-min Rain = 0
KBO1 181137Z 23014KT 05/M03 A2983 RMK A01 T00501032  RH  055%=      5-min Rain = 0
KBO1 181138Z 23014KT 05/M03 A2983 RMK A01 T00501032  RH  055%=      5-min Rain = 0
KBO1 181139Z 22014KT 05/M03 A2983 RMK A01 T00501032  RH  055%=      5-min Rain = 0
KBO1 181140Z 23013KT 05/M03 A2983 RMK A01 T00501032  RH  055%=      5-min Rain = 0
KBO1 181141Z 23013KT 05/M03 A2983 RMK A01 T00501032  RH  056%=      5-min Rain = 0
KBO1 181142Z 23013KT 05/M03 A2983 RMK A01 T00501031  RH  056%=      5-min Rain = 0
KBO1 181143Z 23012KT 05/M03 A2983 RMK A01 T00501031  RH  056%=      5-min Rain = 0
KBO1 181144Z 23014KT 05/M03 A2983 RMK A01 T00501031  RH  056%=      5-min Rain = 0
KBO1 181145Z 23012KT 05/M03 A2983 RMK A01 T00501031  RH  055%=      5-min Rain = 0
KBO1 181146Z 23012KT 05/M03 A2983 RMK A01 T00511031  RH  055%=      5-min Rain = 0
KBO1 181147Z 23010KT 05/M03 A2983 RMK A01 T00511031  RH  055%=      5-min Rain = 0
KBO1 181148Z 23011KT 05/M03 A2983 RMK A01 T00501031  RH  056%=      5-min Rain = 0
KBO1 181149Z 23012KT 05/M03 A2983 RMK A01 T00491031  RH  056%=      5-min Rain = 0
KBO1 181150Z 23012KT 05/M03 A2983 RMK A01 T00491031  RH  056%=      5-min Rain = 0
KBO1 181151Z 23011KT 05/M03 A2983 RMK A01 T00491032  RH  056%=      5-min Rain = 0
KBO1 181152Z 23012KT 05/M03 A2983 RMK A01 T00491031  RH  056%=      5-min Rain = 0
KBO1 181153Z 23012KT 05/M03 A2983 RMK A01 T00491031  RH  056%=      5-min Rain = 0
KBO1 181154Z 23011KT 05/M03 A2983 RMK A01 T00491031  RH  056%=      5-min Rain = 0
KBO1 181155Z 24011KT 05/M03 A2983 RMK A01 T00491031  RH  056%=      5-min Rain = 0
KBO1 181156Z 24010KT 05/M03 A2983 RMK A01 T00481031  RH  056%=      5-min Rain = 0
KBO1 181157Z 23011KT 05/M03 A2983 RMK A01 T00481031  RH  057%=      5-min Rain = 0
KBO1 181158Z 23011KT 05/M03 A2983 RMK A01 T00471031  RH  057%=      5-min Rain = 0
KBO1 181159Z 24011KT 05/M03 A2983 RMK A01 T00471031  RH  057%=      5-min Rain = 0
KBO1 181200Z 23011KT 05/M03 A2983 RMK A01 T00461031  RH  057%=      5-min Rain = 0
KBO1 181201Z 23011KT 05/M03 A2983 RMK A01 T00461031  RH  057%=      5-min Rain = 0
KBO1 181202Z 23013KT 05/M03 A2983 RMK A01 T00451031  RH  058%=      5-min Rain = 0
KBO1 181203Z 23012KT 05/M03 A2982 RMK A01 T00461031  RH  057%=      5-min Rain = 0
KBO1 181204Z 23012KT 05/M03 A2982 RMK A01 T00461031  RH  057%=      5-min Rain = 0
KBO1 181205Z 24012KT 05/M03 A2982 RMK A01 T00461031  RH  057%=      5-min Rain = 0
KBO1 181206Z 24012KT 05/M03 A2982 RMK A01 T00461031  RH  057%=      5-min Rain = 0
KBO1 181207Z 24012KT 05/M03 A2982 RMK A01 T00461030  RH  058%=      5-min Rain = 0
KBO1 181208Z 24011KT 05/M03 A2982 RMK A01 T00471030  RH  057%=      5-min Rain = 0
KBO1 181209Z 24011KT 05/M03 A2982 RMK A01 T00481029  RH  057%=      5-min Rain = 0
KBO1 181210Z 24012KT 05/M03 A2982 RMK A01 T00481029  RH  057%=      5-min Rain = 0
KBO1 181211Z 24013KT 05/M03 A2982 RMK A01 T00491029  RH  057%=      5-min Rain = 0
KBO1 181212Z 24013KT 05/M03 A2982 RMK A01 T00501028  RH  057%=      5-min Rain = 0
KBO1 181213Z 23013KT 05/M03 A2982 RMK A01 T00511028  RH  057%=      5-min Rain = 0
KBO1 181214Z 23014KT 05/M03 A2982 RMK A01 T00521027  RH  057%=      5-min Rain = 0
KBO1 181215Z 23014KT 05/M03 A2982 RMK A01 T00521027  RH  057%=      5-min Rain = 0
KBO1 181216Z 23014KT 05/M03 A2982 RMK A01 T00531026  RH  056%=      5-min Rain = 0
KBO1 181217Z 23014KT 05/M03 A2982 RMK A01 T00541026  RH  056%=      5-min Rain = 0
KBO1 181218Z 23014KT 06/M03 A2982 RMK A01 T00551026  RH  056%=      5-min Rain = 0
KBO1 181219Z 23014KT 06/M03 A2982 RMK A01 T00551026  RH  056%=      5-min Rain = 0
KBO1 181220Z 23014KT 06/M03 A2982 RMK A01 T00561025  RH  056%=      5-min Rain = 0
KBO1 181221Z 23015KT 06/M03 A2982 RMK A01 T00561025  RH  056%=      5-min Rain = 0
KBO1 181222Z 23015KT 06/M03 A2982 RMK A01 T00571025  RH  056%=      5-min Rain = 0
KBO1 181223Z 23015KT 06/M03 A2982 RMK A01 T00581025  RH  055%=      5-min Rain = 0
KBO1 181224Z 23015KT 06/M03 A2981 RMK A01 T00581025  RH  055%=      5-min Rain = 0
KBO1 181225Z 23016KT 06/M03 A2981 RMK A01 T00581025  RH  055%=      5-min Rain = 0
KBO1 181226Z 23015KT 06/M03 A2981 RMK A01 T00591025  RH  055%=      5-min Rain = 0
KBO1 181227Z 23017KT 06/M03 A2981 RMK A01 T00591025  RH  055%=      5-min Rain = 0
KBO1 181228Z 23016KT 06/M03 A2981 RMK A01 T00601025  RH  054%=      5-min Rain = 0
KBO1 181229Z 23016KT 06/M03 A2981 RMK A01 T00601025  RH  054%=      5-min Rain = 0
KBO1 181230Z 23018KT 06/M03 A2981 RMK A01 T00601026  RH  054%=      5-min Rain = 0
KBO1 181231Z 23017KT 06/M03 A2981 RMK A01 T00611026  RH  054%=      5-min Rain = 0
KBO1 181232Z 23017KT 06/M03 A2981 RMK A01 T00611026  RH  054%=      5-min Rain = 0
KBO1 181233Z 23018G23KT 06/M03 A2981 RMK A01 T00621026  RH  054%=      5-min Rain = 0
KBO1 181234Z 23017KT 06/M03 A2981 RMK A01 T00611026  RH  054%=      5-min Rain = 0
KBO1 181235Z 23017KT 06/M03 A2981 RMK A01 T00611026  RH  054%=      5-min Rain = 0
KBO1 181236Z 23016KT 06/M03 A2981 RMK A01 T00611026  RH  054%=      5-min Rain = 0
KBO1 181237Z 24017KT 06/M03 A2981 RMK A01 T00601026  RH  054%=      5-min Rain = 0
KBO1 181238Z 24016KT 06/M03 A2981 RMK A01 T00601026  RH  054%=      5-min Rain = 0
KBO1 181239Z 24016KT 06/M03 A2981 RMK A01 T00601026  RH  054%=      5-min Rain = 0
KBO1 181240Z 24017KT 06/M03 A2981 RMK A01 T00601026  RH  054%=      5-min Rain = 0
KBO1 181241Z 24016KT 06/M03 A2981 RMK A01 T00601026  RH  054%=      5-min Rain = 0
KBO1 181242Z 24017KT 06/M03 A2981 RMK A01 T00601026  RH  054%=      5-min Rain = 0
KBO1 181243Z 24017KT 06/M03 A2981 RMK A01 T00601026  RH  054%=      5-min Rain = 0
KBO1 181244Z 24017KT 06/M03 A2981 RMK A01 T00601026  RH  054%=      5-min Rain = 0
KBO1 181245Z 24016KT 06/M03 A2981 RMK A01 T00601026  RH  054%=      5-min Rain = 0
KBO1 181246Z 24016KT 06/M03 A2981 RMK A01 T00611026  RH  054%=      5-min Rain = 0
KBO1 181247Z 24017KT 06/M03 A2981 RMK A01 T00601026  RH  054%=      5-min Rain = 0
KBO1 181248Z 23017KT 06/M03 A2981 RMK A01 T00611026  RH  054%=      5-min Rain = 0
KBO1 181249Z 23016KT 06/M03 A2981 RMK A01 T00611026  RH  054%=      5-min Rain = 0
KBO1 181250Z 23017KT 06/M03 A2981 RMK A01 T00591027  RH  054%=      5-min Rain = 0
KBO1 181251Z 23016KT 06/M03 A2981 RMK A01 T00591026  RH  054%=      5-min Rain = 0
KBO1 181252Z 24016KT 06/M03 A2981 RMK A01 T00591026  RH  054%=      5-min Rain = 0
KBO1 181253Z 24015KT 06/M03 A2981 RMK A01 T00581027  RH  055%=      5-min Rain = 0
KBO1 181254Z 23015KT 06/M03 A2981 RMK A01 T00581026  RH  055%=      5-min Rain = 0
KBO1 181255Z 24014KT 06/M03 A2981 RMK A01 T00571027  RH  055%=      5-min Rain = 0
KBO1 181256Z 24014KT 06/M03 A2981 RMK A01 T00561027  RH  055%=      5-min Rain = 0
KBO1 181257Z 24015KT 06/M03 A2981 RMK A01 T00551026  RH  056%=      5-min Rain = 0
KBO1 181258Z 24016KT 06/M03 A2981 RMK A01 T00561026  RH  056%=      5-min Rain = 0
KBO1 181259Z 24016KT 06/M03 A2981 RMK A01 T00581025  RH  055%=      5-min Rain = 0
KBO1 181300Z 24016KT 06/M03 A2981 RMK A01 T00601025  RH  055%=      5-min Rain = 0
KBO1 181301Z 24014KT 06/M03 A2981 RMK A01 T00611025  RH  054%=      5-min Rain = 0
KBO1 181302Z 24014KT 06/M03 A2981 RMK A01 T00621025  RH  054%=      5-min Rain = 0
KBO1 181303Z 24014KT 06/M03 A2981 RMK A01 T00631025  RH  054%=      5-min Rain = 0
KBO1 181304Z 24014KT 06/M02 A2981 RMK A01 T00631024  RH  053%=      5-min Rain = 0
KBO1 181305Z 24014KT 06/M02 A2981 RMK A01 T00641024  RH  053%=      5-min Rain = 0
KBO1 181306Z 24015KT 06/M02 A2981 RMK A01 T00641024  RH  053%=      5-min Rain = 0
KBO1 181307Z 24017KT 06/M02 A2981 RMK A01 T00641024  RH  053%=      5-min Rain = 0
KBO1 181308Z 24016KT 07/M02 A298 RMK A01 T00661023  RH  053%=      5-min Rain = 0
KBO1 181309Z 24016KT 07/M02 A298 RMK A01 T00661024  RH  053%=      5-min Rain = 0
KBO1 181310Z 24016KT 07/M02 A2981 RMK A01 T00661023  RH  053%=      5-min Rain = 0
KBO1 181311Z 24018KT 07/M02 A2981 RMK A01 T00681023  RH  052%=      5-min Rain = 0
KBO1 181312Z 24019G24KT 07/M02 A2981 RMK A01 T00691022  RH  052%=      5-min Rain = 0
KBO1 181313Z 24018KT 07/M02 A2981 RMK A01 T00711022  RH  052%=      5-min Rain = 0
KBO1 181314Z 24019KT 07/M02 A2981 RMK A01 T00711022  RH  051%=      5-min Rain = 0
KBO1 181315Z 25016KT 07/M02 A2981 RMK A01 T00721022  RH  051%=      5-min Rain = 0
KBO1 181316Z 25017KT 07/M02 A2981 RMK A01 T00721022  RH  051%=      5-min Rain = 0
KBO1 181317Z 25017KT 07/M02 A2981 RMK A01 T00731022  RH  051%=      5-min Rain = 0
KBO1 181318Z 26015KT 07/M02 A2981 RMK A01 T00721022  RH  051%=      5-min Rain = 0
KBO1 181319Z 25017KT 07/M02 A2981 RMK A01 T00721022  RH  051%=      5-min Rain = 0
KBO1 181320Z 25016KT 07/M02 A2981 RMK A01 T00711022  RH  051%=      5-min Rain = 0
KBO1 181321Z 26014KT 07/M02 A2982 RMK A01 T00721022  RH  051%=      5-min Rain = 0
KBO1 181322Z 26014KT 07/M02 A2982 RMK A01 T00711022  RH  052%=      5-min Rain = 0
KBO1 181323Z 26015KT 07/M02 A2982 RMK A01 T00711021  RH  052%=      5-min Rain = 0
KBO1 181324Z 26018KT 07/M02 A2981 RMK A01 T00711020  RH  052%=      5-min Rain = 0
KBO1 181325Z 26019KT 07/M02 A2981 RMK A01 T00741019  RH  052%=      5-min Rain = 0
KBO1 181326Z 26017KT 08/M02 A2981 RMK A01 T00771018  RH  051%=      5-min Rain = 0
KBO1 181327Z 25016G22KT 08/M02 A2981 RMK A01 T00781018  RH  051%=      5-min Rain = 0
KBO1 181328Z 26019KT 08/M02 A2981 RMK A01 T00781018  RH  051%=      5-min Rain = 0
KBO1 181329Z 25019KT 08/M02 A2981 RMK A01 T00791018  RH  050%=      5-min Rain = 0
KBO1 181330Z 26015KT 08/M02 A2982 RMK A01 T00811018  RH  050%=      5-min Rain = 0
KBO1 181331Z 26016KT 08/M02 A2982 RMK A01 T00811018  RH  050%=      5-min Rain = 0
KBO1 181332Z 26016KT 08/M02 A2982 RMK A01 T00811018  RH  050%=      5-min Rain = 0
KBO1 181333Z 26016KT 08/M02 A2982 RMK A01 T00801018  RH  050%=      5-min Rain = 0
KBO1 181334Z 26015KT 08/M02 A2982 RMK A01 T00801018  RH  050%=      5-min Rain = 0
KBO1 181335Z 26016KT 08/M02 A2982 RMK A01 T00801018  RH  050%=      5-min Rain = 0
KBO1 181336Z 26017KT 08/M02 A2982 RMK A01 T00801018  RH  050%=      5-min Rain = 0
KBO1 181337Z 26017KT 08/M02 A2982 RMK A01 T00801018  RH  050%=      5-min Rain = 0
KBO1 181338Z 26015KT 08/M02 A2982 RMK A01 T00791018  RH  050%=      5-min Rain = 0
KBO1 181339Z 26016KT 08/M02 A2982 RMK A01 T00791018  RH  050%=      5-min Rain = 0
KBO1 181340Z 26016KT 08/M02 A2982 RMK A01 T00781019  RH  050%=      5-min Rain = 0
KBO1 181341Z 25016KT 08/M02 A2981 RMK A01 T00771019  RH  051%=      5-min Rain = 0
KBO1 181342Z 26017G22KT 08/M02 A2981 RMK A01 T00771018  RH  051%=      5-min Rain = 0
KBO1 181343Z 25016KT 08/M02 A2982 RMK A01 T00771018  RH  051%=      5-min Rain = 0
KBO1 181344Z 25013KT 08/M02 A2982 RMK A01 T00771017  RH  051%=      5-min Rain = 0
KBO1 181345Z 26015KT 08/M02 A2982 RMK A01 T00771017  RH  051%=      5-min Rain = 0
KBO1 181346Z 26015KT 08/M02 A2982 RMK A01 T00771017  RH  051%=      5-min Rain = 0
KBO1 181347Z 26015KT 08/M02 A2982 RMK A01 T00771017  RH  052%=      5-min Rain = 0
KBO1 181348Z 26015KT 08/M02 A2982 RMK A01 T00771017  RH  052%=      5-min Rain = 0
KBO1 181349Z 26016KT 08/M02 A2982 RMK A01 T00771016  RH  052%=      5-min Rain = 0
KBO1 181350Z 26014KT 08/M02 A2982 RMK A01 T00771016  RH  052%=      5-min Rain = 0
KBO1 181351Z 26015KT 08/M02 A2982 RMK A01 T00771016  RH  052%=      5-min Rain = 0
KBO1 181352Z 26015KT 08/M02 A2982 RMK A01 T00771015  RH  052%=      5-min Rain = 0
KBO1 181353Z 26014KT 08/M02 A2982 RMK A01 T00771016  RH  052%=      5-min Rain = 0
KBO1 181354Z 26013KT 08/M02 A2982 RMK A01 T00771015  RH  052%=      5-min Rain = 0
KBO1 181355Z 26013KT 08/M02 A2982 RMK A01 T00771015  RH  052%=      5-min Rain = 0
KBO1 181356Z 26015KT 08/M02 A2982 RMK A01 T00761015  RH  052%=      5-min Rain = 0
KBO1 181357Z 26015KT 08/M02 A2982 RMK A01 T00761015  RH  052%=      5-min Rain = 0
KBO1 181358Z 25013KT 08/M02 A2982 RMK A01 T00771015  RH  052%=      5-min Rain = 0
KBO1 181359Z 25013KT 08/M02 A2982 RMK A01 T00771015  RH  052%=      5-min Rain = 0
KBO1 181400Z 26013KT 08/M02 A2982 RMK A01 T00761015  RH  053%=      5-min Rain = 0
KBO1 181401Z 26014KT 08/M01 A2982 RMK A01 T00771014  RH  053%=      5-min Rain = 0
KBO1 181402Z 25015KT 08/M01 A2982 RMK A01 T00771014  RH  053%=      5-min Rain = 0
KBO1 181403Z 26012KT 08/M01 A2982 RMK A01 T00771014  RH  052%=      5-min Rain = 0
KBO1 181404Z 26013KT 08/M01 A2982 RMK A01 T00781014  RH  052%=      5-min Rain = 0
KBO1 181405Z 26013KT 08/M01 A2983 RMK A01 T00771014  RH  053%=      5-min Rain = 0
KBO1 181406Z 26013KT 08/M01 A2983 RMK A01 T00771013  RH  053%=      5-min Rain = 0
KBO1 181407Z 26012KT 08/M01 A2983 RMK A01 T00771014  RH  052%=      5-min Rain = 0
KBO1 181408Z 27011KT 08/M01 A2983 RMK A01 T00781014  RH  052%=      5-min Rain = 0
KBO1 181409Z 28012KT 08/M01 A2983 RMK A01 T00771014  RH  053%=      5-min Rain = 0
KBO1 181410Z 27011KT 08/M01 A2983 RMK A01 T00771014  RH  053%=      5-min Rain = 0
KBO1 181411Z 28009KT 08/M01 A2983 RMK A01 T00771014  RH  053%=      5-min Rain = 0
KBO1 181412Z 27011KT 08/M01 A2983 RMK A01 T00761014  RH  053%=      5-min Rain = 0
KBO1 181413Z 27009KT 08/M01 A2983 RMK A01 T00761014  RH  053%=      5-min Rain = 0
KBO1 181414Z 27010KT 08/M01 A2982 RMK A01 T00761014  RH  053%=      5-min Rain = 0
KBO1 181415Z 27010KT 08/M01 A2982 RMK A01 T00761014  RH  053%=      5-min Rain = 0
KBO1 181416Z 27009KT 08/M01 A2982 RMK A01 T00761014  RH  053%=      5-min Rain = 0
KBO1 181417Z 27010KT 08/M01 A2982 RMK A01 T00761014  RH  053%=      5-min Rain = 0
KBO1 181418Z 27010KT 08/M01 A2982 RMK A01 T00761014  RH  053%=      5-min Rain = 0
KBO1 181419Z 27012KT 08/M01 A2982 RMK A01 T00761014  RH  053%=      5-min Rain = 0
KBO1 181420Z 27011KT 08/M01 A2982 RMK A01 T00771014  RH  053%=      5-min Rain = 0
KBO1 181421Z 26011KT 08/M01 A2982 RMK A01 T00771014  RH  053%=      5-min Rain = 0
KBO1 181422Z 26012KT 08/M01 A2982 RMK A01 T00771014  RH  053%=      5-min Rain = 0
KBO1 181423Z 26014KT 08/M01 A2982 RMK A01 T00781013  RH  053%=      5-min Rain = 0
KBO1 181424Z 26013KT 08/M01 A2982 RMK A01 T00781013  RH  052%=      5-min Rain = 0
KBO1 181425Z 25014G19KT 08/M01 A2982 RMK A01 T00791013  RH  052%=      5-min Rain = 0
KBO1 181426Z 25017KT 08/M01 A2981 RMK A01 T00801013  RH  052%=      5-min Rain = 0
KBO1 181427Z 25018KT 08/M01 A2981 RMK A01 T00811012  RH  052%=      5-min Rain = 0
KBO1 181428Z 25017G22KT 08/M01 A2981 RMK A01 T00821012  RH  051%=      5-min Rain = 0
KBO1 181429Z 25019KT 08/M01 A2981 RMK A01 T00821012  RH  051%=      5-min Rain = 0
KBO1 181430Z 25018KT 08/M01 A2981 RMK A01 T00831012  RH  051%=      5-min Rain = 0
KBO1 181431Z 25019KT 08/M01 A2981 RMK A01 T00831011  RH  051%=      5-min Rain = 0
KBO1 181432Z 25017KT 08/M01 A2981 RMK A01 T00831010  RH  052%=      5-min Rain = 0
KBO1 181433Z 25019G25KT 08/M01 A2981 RMK A01 T00841010  RH  052%=      5-min Rain = 0
KBO1 181434Z 25016G22KT 08/M01 A2981 RMK A01 T00841009  RH  052%=      5-min Rain = 0
KBO1 181435Z 25019KT 08/M01 A2981 RMK A01 T00841009  RH  052%=      5-min Rain = 0
KBO1 181436Z 26018G23KT 09/M01 A2981 RMK A01 T00851008  RH  052%=      5-min Rain = 0
KBO1 181437Z 25019KT 09/M01 A2981 RMK A01 T00851007  RH  052%=      5-min Rain = 0
KBO1 181438Z 26020G27KT 09/M01 A2981 RMK A01 T00861006  RH  052%=      5-min Rain = 0
KBO1 181439Z 25019KT 09/M00 A2981 RMK A01 T00871004  RH  053%=      5-min Rain = 0
KBO1 181440Z 25021KT 09/M00 A2981 RMK A01 T00881003  RH  053%=      5-min Rain = 0
KBO1 181441Z 25020KT 09/M00 A2981 RMK A01 T00891003  RH  052%=      5-min Rain = 0
KBO1 181442Z 25017G22KT 09/M00 A2981 RMK A01 T00891003  RH  052%=      5-min Rain = 0
KBO1 181443Z 25018KT 09/M00 A2981 RMK A01 T00891003  RH  053%=      5-min Rain = 0
KBO1 181444Z 25018KT 09/M00 A2981 RMK A01 T00891003  RH  053%=      5-min Rain = 0
KBO1 181445Z 25017KT 09/M00 A2981 RMK A01 T00891003  RH  053%=      5-min Rain = 0
KBO1 181446Z 25018KT 09/M00 A2981 RMK A01 T00891003  RH  053%=      5-min Rain = 0
KBO1 181447Z 25015G20KT 09/M00 A2981 RMK A01 T00881003  RH  053%=      5-min Rain = 0
KBO1 181448Z 25017KT 09/M00 A2981 RMK A01 T00891002  RH  053%=      5-min Rain = 0
KBO1 181449Z 25019KT 09/M00 A2981 RMK A01 T00881002  RH  053%=      5-min Rain = 0
KBO1 181450Z 25020KT 09/M00 A2981 RMK A01 T00881003  RH  053%=      5-min Rain = 0
KBO1 181451Z 26019KT 09/M00 A2981 RMK A01 T00891002  RH  053%=      5-min Rain = 0
KBO1 181452Z 26020KT 09/M00 A2981 RMK A01 T00891002  RH  053%=      5-min Rain = 0
KBO1 181453Z 26020KT 09/M00 A2981 RMK A01 T00891001  RH  053%=      5-min Rain = 0
KBO1 181454Z 27017KT 09/M00 A2982 RMK A01 T00891001  RH  053%=      5-min Rain = 0
KBO1 181455Z 27017KT 09/M00 A2981 RMK A01 T00891001  RH  053%=      5-min Rain = 0
KBO1 181456Z 27018G23KT 09/00 A2981 RMK A01 T00900000  RH  053%=      5-min Rain = 0
KBO1 181457Z 26015G24KT 09/00 A2981 RMK A01 T00900001  RH  054%=      5-min Rain = 0
KBO1 181458Z 26017G22KT 09/00 A2981 RMK A01 T00900001  RH  054%=      5-min Rain = 0
KBO1 181459Z 26019G26KT 09/00 A2981 RMK A01 T00910002  RH  054%=      5-min Rain = 0
KBO1 181500Z 26018G23KT 09/00 A2981 RMK A01 T00910003  RH  054%=      5-min Rain = 0
KBO1 181501Z 26019KT 09/00 A2981 RMK A01 T00910003  RH  054%=      5-min Rain = 0
KBO1 181502Z 26019KT 09/00 A2981 RMK A01 T00920003  RH  054%=      5-min Rain = 0
KBO1 181503Z 26020G25KT 09/00 A2981 RMK A01 T00920003  RH  054%=      5-min Rain = 0
KBO1 181504Z 26020KT 09/00 A2981 RMK A01 T00930003  RH  054%=      5-min Rain = 0
KBO1 181505Z 26019G24KT 09/00 A2981 RMK A01 T00930003  RH  054%=      5-min Rain = 0
KBO1 181506Z 26021G26KT 09/00 A2981 RMK A01 T00930004  RH  054%=      5-min Rain = 0
KBO1 181507Z 26020G25KT 09/00 A2981 RMK A01 T00930004  RH  054%=      5-min Rain = 0
KBO1 181508Z 26019KT 09/00 A2981 RMK A01 T00930004  RH  054%=      5-min Rain = 0
KBO1 181509Z 26019KT 09/00 A2981 RMK A01 T00930004  RH  054%=      5-min Rain = 0
KBO1 181510Z 26018KT 09/01 A2981 RMK A01 T00930005  RH  054%=      5-min Rain = 0
KBO1 181511Z 26019G25KT 09/01 A2981 RMK A01 T00930005  RH  054%=      5-min Rain = 0
KBO1 181512Z 26020G26KT 09/01 A2981 RMK A01 T00930005  RH  054%=      5-min Rain = 0
KBO1 181513Z 26021KT 09/01 A2981 RMK A01 T00930006  RH  054%=      5-min Rain = 0
KBO1 181514Z 26018KT 09/01 A2981 RMK A01 T00930006  RH  054%=      5-min Rain = 0
KBO1 181515Z 26018G23KT 09/01 A2981 RMK A01 T00940006  RH  054%=      5-min Rain = 0
KBO1 181516Z 26018KT 09/01 A2981 RMK A01 T00930006  RH  054%=      5-min Rain = 0
KBO1 181517Z 26019KT 09/01 A2981 RMK A01 T00940007  RH  055%=      5-min Rain = 0
KBO1 181518Z 26016KT 09/01 A2981 RMK A01 T00940007  RH  054%=      5-min Rain = 0
KBO1 181519Z 26017KT 09/01 A2981 RMK A01 T00940007  RH  054%=      5-min Rain = 0
KBO1 181520Z 26019KT 09/01 A2981 RMK A01 T00940007  RH  055%=      5-min Rain = 0
KBO1 181521Z 25020KT 09/01 A2981 RMK A01 T00940007  RH  054%=      5-min Rain = 0
KBO1 181522Z 26018KT 09/01 A2981 RMK A01 T00940007  RH  054%=      5-min Rain = 0
KBO1 181523Z 25019G26KT 10/01 A2981 RMK A01 T00950007  RH  054%=      5-min Rain = 0
KBO1 181524Z 25020KT 10/01 A2981 RMK A01 T00950007  RH  054%=      5-min Rain = 0
KBO1 181525Z 25021KT 10/01 A2981 RMK A01 T00950007  RH  054%=      5-min Rain = 0
KBO1 181526Z 26021KT 10/01 A298 RMK A01 T00950007  RH  054%=      5-min Rain = 0
KBO1 181527Z 25018KT 10/01 A298 RMK A01 T00950007  RH  054%=      5-min Rain = 0
KBO1 181528Z 25018KT 10/01 A298 RMK A01 T00950007  RH  054%=      5-min Rain = 0
KBO1 181529Z 25015KT 10/01 A298 RMK A01 T00950007  RH  054%=      5-min Rain = 0
KBO1 181530Z 25015KT 10/01 A298 RMK A01 T00950008  RH  055%=      5-min Rain = 0
KBO1 181531Z 25017KT 10/01 A298 RMK A01 T00950008  RH  055%=      5-min Rain = 0
KBO1 181532Z 26018KT 10/01 A298 RMK A01 T00950009  RH  055%=      5-min Rain = 0
KBO1 181533Z 26017KT 10/01 A298 RMK A01 T00950008  RH  055%=      5-min Rain = 0
KBO1 181534Z 26017KT 10/01 A298 RMK A01 T00950009  RH  055%=      5-min Rain = 0
KBO1 181535Z 26016KT 10/01 A298 RMK A01 T00950009  RH  055%=      5-min Rain = 0
KBO1 181536Z 26017KT 10/01 A298 RMK A01 T00960010  RH  055%=      5-min Rain = 0
KBO1 181537Z 26015KT 10/01 A298 RMK A01 T00970011  RH  055%=      5-min Rain = 0
KBO1 181538Z 26015G20KT 10/01 A298 RMK A01 T00980012  RH  055%=      5-min Rain = 0
KBO1 181539Z 25017KT 10/01 A298 RMK A01 T00980012  RH  055%=      5-min Rain = 0
KBO1 181540Z 25017KT 10/01 A298 RMK A01 T00980012  RH  055%=      5-min Rain = 0
KBO1 181541Z 25018KT 10/01 A298 RMK A01 T00980012  RH  055%=      5-min Rain = 0
KBO1 181542Z 26013KT 10/01 A298 RMK A01 T00990013  RH  055%=      5-min Rain = 0
KBO1 181543Z 26016KT 10/01 A298 RMK A01 T00990013  RH  055%=      5-min Rain = 0
KBO1 181544Z 25015KT 10/01 A298 RMK A01 T00990013  RH  055%=      5-min Rain = 0
KBO1 181545Z 25013KT 10/01 A298 RMK A01 T00990013  RH  055%=      5-min Rain = 0
KBO1 181546Z 26015KT 10/01 A298 RMK A01 T00990014  RH  055%=      5-min Rain = 0
KBO1 181547Z 25013KT 10/01 A298 RMK A01 T00990013  RH  055%=      5-min Rain = 0
KBO1 181548Z 25013KT 10/02 A298 RMK A01 T01000015  RH  055%=      5-min Rain = 0
KBO1 181549Z 25013KT 10/02 A298 RMK A01 T01000016  RH  056%=      5-min Rain = 0
KBO1 181550Z 25016KT 10/02 A2979 RMK A01 T01020017  RH  056%=      5-min Rain = 0
KBO1 181551Z 26014KT 10/02 A2979 RMK A01 T01040020  RH  056%=      5-min Rain = 0
KBO1 181552Z 26015G22KT 11/02 A298 RMK A01 T01060020  RH  055%=      5-min Rain = 0
KBO1 181553Z 26017KT 11/02 A298 RMK A01 T01070019  RH  055%=      5-min Rain = 0
KBO1 181554Z 26019KT 11/02 A298 RMK A01 T01070021  RH  055%=      5-min Rain = 0
KBO1 181555Z 26021G26KT 11/02 A2979 RMK A01 T01080021  RH  055%=      5-min Rain = 0
KBO1 181556Z 26019KT 11/02 A2979 RMK A01 T01080020  RH  055%=      5-min Rain = 0
KBO1 181557Z 26019KT 11/02 A2979 RMK A01 T01070021  RH  055%=      5-min Rain = 0
KBO1 181558Z 25015KT 11/02 A2979 RMK A01 T01060020  RH  055%=      5-min Rain = 0
KBO1 181559Z 26016KT 11/02 A2979 RMK A01 T01070021  RH  055%=      5-min Rain = 0
KBO1 181600Z 24015KT 11/02 A2979 RMK A01 T01060021  RH  055%=      5-min Rain = 0
KBO1 181601Z 25015KT 11/02 A2979 RMK A01 T01070021  RH  055%=      5-min Rain = 0
KBO1 181602Z 25015KT 11/02 A2978 RMK A01 T01090023  RH  055%=      5-min Rain = 0
KBO1 181603Z 26019KT 11/02 A2978 RMK A01 T01140024  RH  054%=      5-min Rain = 0
KBO1 181604Z 25022KT 12/02 A2978 RMK A01 T01160023  RH  053%=      5-min Rain = 0
KBO1 181605Z 24023KT 12/02 A2977 RMK A01 T01160022  RH  052%=      5-min Rain = 0
KBO1 181606Z 25021G32KT 12/02 A2977 RMK A01 T01160021  RH  052%=      5-min Rain = 0
KBO1 181607Z 25024G29KT 12/02 A2978 RMK A01 T01150021  RH  052%=      5-min Rain = 0
KBO1 181608Z 26024G30KT 11/02 A2978 RMK A01 T01140020  RH  053%=      5-min Rain = 0
KBO1 181609Z 25022G28KT 11/02 A2978 RMK A01 T01140020  RH  053%=      5-min Rain = 0
KBO1 181610Z 26026KT 12/02 A2978 RMK A01 T01150021  RH  052%=      5-min Rain = 0
KBO1 181611Z 25026G32KT 12/02 A2978 RMK A01 T01180021  RH  052%=      5-min Rain = 0
KBO1 181612Z 26029KT 12/02 A2977 RMK A01 T01190021  RH  051%=      5-min Rain = 0
KBO1 181613Z 25025KT 12/02 A2977 RMK A01 T01210021  RH  051%=      5-min Rain = 0
KBO1 181614Z 26027G34KT 12/02 A2977 RMK A01 T01220021  RH  050%=      5-min Rain = 0
KBO1 181615Z 25030KT 12/02 A2977 RMK A01 T01230021  RH  050%=      5-min Rain = 0
KBO1 181616Z 25037G42KT 12/02 A2977 RMK A01 T01230020  RH  049%=      5-min Rain = 0
KBO1 181617Z 25031G37KT 12/02 A2977 RMK A01 T01220019  RH  049%=      5-min Rain = 0
KBO1 181618Z 26034G40KT 12/02 A2977 RMK A01 T01230020  RH  049%=      5-min Rain = 0
KBO1 181619Z 26031G41KT 12/02 A2977 RMK A01 T01230020  RH  049%=      5-min Rain = 0
KBO1 181620Z 26030G37KT 12/02 A2977 RMK A01 T01240019  RH  049%=      5-min Rain = 0
KBO1 181621Z 26030G37KT 13/02 A2976 RMK A01 T01250020  RH  049%=      5-min Rain = 0
KBO1 181622Z 25029G37KT 13/02 A2976 RMK A01 T01250019  RH  049%=      5-min Rain = 0
KBO1 181623Z 25031G36KT 12/02 A2976 RMK A01 T01240020  RH  049%=      5-min Rain = 0
KBO1 181624Z 25029G36KT 13/02 A2976 RMK A01 T01250020  RH  049%=      5-min Rain = 0
KBO1 181625Z 25027G34KT 13/02 A2977 RMK A01 T01260021  RH  049%=      5-min Rain = 0
KBO1 181626Z 25035KT 13/02 A2976 RMK A01 T01270020  RH  048%=      5-min Rain = 0
KBO1 181627Z 25034G39KT 13/02 A2976 RMK A01 T01260019  RH  048%=      5-min Rain = 0
KBO1 181628Z 25034G40KT 12/02 A2976 RMK A01 T01240019  RH  049%=      5-min Rain = 0
KBO1 181629Z 26032G37KT 13/02 A2976 RMK A01 T01250019  RH  049%=      5-min Rain = 0
KBO1 181630Z 26026G32KT 13/02 A2977 RMK A01 T01250020  RH  049%=      5-min Rain = 0
KBO1 181631Z 25036G43KT 13/02 A2977 RMK A01 T01270020  RH  048%=      5-min Rain = 0
KBO1 181632Z 26034G42KT 13/02 A2976 RMK A01 T01270018  RH  047%=      5-min Rain = 0
KBO1 181633Z 25032G40KT 13/02 A2976 RMK A01 T01260018  RH  048%=      5-min Rain = 0
KBO1 181634Z 25032G38KT 13/02 A2976 RMK A01 T01250018  RH  048%=      5-min Rain = 0
KBO1 181635Z 25035G41KT 13/02 A2976 RMK A01 T01250018  RH  048%=      5-min Rain = 0
KBO1 181636Z 25032G38KT 13/02 A2976 RMK A01 T01250018  RH  048%=      5-min Rain = 0
KBO1 181637Z 26029G35KT 13/02 A2976 RMK A01 T01260018  RH  048%=      5-min Rain = 0
KBO1 181638Z 25029G35KT 13/02 A2977 RMK A01 T01260018  RH  048%=      5-min Rain = 0
KBO1 181639Z 26029G34KT 13/02 A2977 RMK A01 T01270019  RH  048%=      5-min Rain = 0
KBO1 181640Z 25028G35KT 13/02 A2977 RMK A01 T01270019  RH  048%=      5-min Rain = 0
KBO1 181641Z 25033KT 13/02 A2977 RMK A01 T01280018  RH  047%=      5-min Rain = 0
KBO1 181642Z 25032G38KT 13/02 A2977 RMK A01 T01270018  RH  047%=      5-min Rain = 0
KBO1 181643Z 25030G36KT 13/02 A2977 RMK A01 T01270017  RH  047%=      5-min Rain = 0
KBO1 181644Z 25031G38KT 13/02 A2977 RMK A01 T01280017  RH  047%=      5-min Rain = 0
KBO1 181645Z 26033KT 13/02 A2977 RMK A01 T01290016  RH  046%=      5-min Rain = 0
KBO1 181646Z 25028G33KT 13/02 A2977 RMK A01 T01280017  RH  047%=      5-min Rain = 0
KBO1 181647Z 26025KT 13/02 A2977 RMK A01 T01290018  RH  047%=      5-min Rain = 0
KBO1 181648Z 26022KT 13/02 A2977 RMK A01 T01300017  RH  046%=      5-min Rain = 0
KBO1 181649Z 26029G38KT 13/02 A2976 RMK A01 T01320018  RH  046%=      5-min Rain = 0
KBO1 181650Z 25031KT 13/02 A2976 RMK A01 T01310015  RH  045%=      5-min Rain = 0
KBO1 181651Z 25029G34KT 13/02 A2976 RMK A01 T01290015  RH  046%=      5-min Rain = 0
KBO1 181652Z 25032G37KT 13/01 A2976 RMK A01 T01290014  RH  045%=      5-min Rain = 0
KBO1 181653Z 25027G32KT 13/01 A2976 RMK A01 T01290011  RH  045%=      5-min Rain = 0
KBO1 181654Z 26029G35KT 13/01 A2976 RMK A01 T01300012  RH  045%=      5-min Rain = 0
KBO1 181655Z 26030KT 13/01 A2977 RMK A01 T01310012  RH  044%=      5-min Rain = 0
KBO1 181656Z 26023G33KT 13/01 A2977 RMK A01 T01310013  RH  044%=      5-min Rain = 0
KBO1 181657Z 25025G31KT 13/01 A2977 RMK A01 T01320013  RH  044%=      5-min Rain = 0
KBO1 181658Z 26028KT 13/01 A2977 RMK A01 T01330013  RH  044%=      5-min Rain = 0
KBO1 181659Z 25030KT 13/01 A2977 RMK A01 T01320013  RH  044%=      5-min Rain = 0
KBO1 181700Z 25031G37KT 13/01 A2977 RMK A01 T01310012  RH  044%=      5-min Rain = 0
KBO1 181701Z 25030G35KT 13/01 A2977 RMK A01 T01300011  RH  044%=      5-min Rain = 0
KBO1 181702Z 25026G31KT 13/01 A2977 RMK A01 T01300011  RH  044%=      5-min Rain = 0
KBO1 181703Z 25028G33KT 13/01 A2977 RMK A01 T01320009  RH  043%=      5-min Rain = 0
KBO1 181704Z 25028G33KT 13/01 A2977 RMK A01 T01330007  RH  042%=      5-min Rain = 0
KBO1 181705Z 26029KT 13/01 A2977 RMK A01 T01330008  RH  043%=      5-min Rain = 0
KBO1 181706Z 26026G31KT 13/01 A2977 RMK A01 T01310008  RH  043%=      5-min Rain = 0
KBO1 181707Z 26029KT 13/01 A2977 RMK A01 T01310007  RH  043%=      5-min Rain = 0
KBO1 181708Z 25025G31KT 13/01 A2977 RMK A01 T01300007  RH  043%=      5-min Rain = 0
KBO1 181709Z 26022KT 13/01 A2977 RMK A01 T01290008  RH  043%=      5-min Rain = 0
KBO1 181710Z 26027G32KT 13/01 A2977 RMK A01 T01310008  RH  043%=      5-min Rain = 0
KBO1 181711Z 27022G27KT 13/01 A2977 RMK A01 T01310005  RH  042%=      5-min Rain = 0
KBO1 181712Z 26026KT 13/01 A2977 RMK A01 T01300005  RH  042%=      5-min Rain = 0
KBO1 181713Z 25026KT 13/01 A2977 RMK A01 T01320007  RH  043%=      5-min Rain = 0
KBO1 181714Z 26030KT 13/01 A2977 RMK A01 T01320006  RH  042%=      5-min Rain = 0
KBO1 181715Z 26028G34KT 13/01 A2977 RMK A01 T01320005  RH  042%=      5-min Rain = 0
KBO1 181716Z 26028G35KT 13/01 A2977 RMK A01 T01330006  RH  042%=      5-min Rain = 0
KBO1 181717Z 25030G36KT 13/01 A2977 RMK A01 T01340006  RH  041%=      5-min Rain = 0
KBO1 181718Z 26029G34KT 14/00 A2977 RMK A01 T01350004  RH  041%=      5-min Rain = 0
KBO1 181719Z 26027G33KT 14/01 A2977 RMK A01 T01350005  RH  041%=      5-min Rain = 0
KBO1 181720Z 26030G36KT 14/01 A2977 RMK A01 T01360005  RH  041%=      5-min Rain = 0
KBO1 181721Z 26024KT 14/01 A2977 RMK A01 T01360005  RH  041%=      5-min Rain = 0
KBO1 181722Z 26029G36KT 14/01 A2977 RMK A01 T01390006  RH  040%=      5-min Rain = 0
KBO1 181723Z 26029G34KT 14/00 A2977 RMK A01 T01390004  RH  039%=      5-min Rain = 0
KBO1 181724Z 26030G36KT 14/00 A2977 RMK A01 T01390004  RH  040%=      5-min Rain = 0
KBO1 181725Z 25028G33KT 14/00 A2977 RMK A01 T01380003  RH  040%=      5-min Rain = 0
KBO1 181726Z 26025KT 14/00 A2977 RMK A01 T01400003  RH  039%=      5-min Rain = 0
KBO1 181727Z 25030G38KT 14/00 A2977 RMK A01 T01420003  RH  039%=      5-min Rain = 0
KBO1 181728Z 26034KT 14/M00 A2977 RMK A01 T01391001  RH  038%=      5-min Rain = 0
KBO1 181729Z 26034G41KT 14/M00 A2977 RMK A01 T01371002  RH  039%=      5-min Rain = 0
KBO1 181730Z 26029KT 14/M00 A2977 RMK A01 T01351001  RH  039%=      5-min Rain = 0
KBO1 181731Z 26031G38KT 14/M00 A2977 RMK A01 T01361002  RH  039%=      5-min Rain = 0
KBO1 181732Z 26031KT 14/M00 A2977 RMK A01 T01361003  RH  039%=      5-min Rain = 0
KBO1 181733Z 26029G34KT 14/M00 A2977 RMK A01 T01361001  RH  039%=      5-min Rain = 0
KBO1 181734Z 26029G37KT 14/M00 A2977 RMK A01 T01361001  RH  039%=      5-min Rain = 0
KBO1 181735Z 26033G38KT 14/M00 A2977 RMK A01 T01371002  RH  039%=      5-min Rain = 0
KBO1 181736Z 26028G38KT 14/M00 A2977 RMK A01 T01371002  RH  038%=      5-min Rain = 0
KBO1 181737Z 26031G36KT 14/M00 A2977 RMK A01 T01361002  RH  039%=      5-min Rain = 0
KBO1 181738Z 26028G33KT 14/M00 A2977 RMK A01 T01351002  RH  039%=      5-min Rain = 0
KBO1 181739Z 26031G36KT 14/M00 A2976 RMK A01 T01361002  RH  039%=      5-min Rain = 0
KBO1 181740Z 25028G35KT 14/M00 A2977 RMK A01 T01371002  RH  039%=      5-min Rain = 0
KBO1 181741Z 26027G33KT 14/M00 A2976 RMK A01 T01371002  RH  038%=      5-min Rain = 0
KBO1 181742Z 27027KT 14/M00 A2976 RMK A01 T01391002  RH  038%=      5-min Rain = 0
KBO1 181743Z 27024G30KT 14/M00 A2976 RMK A01 T01401002  RH  038%=      5-min Rain = 0
KBO1 181744Z 26026KT 14/00 A2976 RMK A01 T01420000  RH  038%=      5-min Rain = 0
KBO1 181745Z 26025G32KT 14/00 A2976 RMK A01 T01430000  RH  038%=      5-min Rain = 0
KBO1 181746Z 25026G31KT 14/00 A2976 RMK A01 T01420000  RH  038%=      5-min Rain = 0
KBO1 181747Z 26025G30KT 14/00 A2976 RMK A01 T01410001  RH  038%=      5-min Rain = 0
KBO1 181748Z 26023G29KT 14/00 A2976 RMK A01 T01420001  RH  038%=      5-min Rain = 0
KBO1 181749Z 26027KT 15/00 A2975 RMK A01 T01450001  RH  037%=      5-min Rain = 0
KBO1 181750Z 25027G34KT 15/00 A2975 RMK A01 T01450001  RH  037%=      5-min Rain = 0
KBO1 181751Z 26024G29KT 14/00 A2975 RMK A01 T01430000  RH  038%=      5-min Rain = 0
KBO1 181752Z 26026G32KT 14/00 A2975 RMK A01 T01440002  RH  038%=      5-min Rain = 0
KBO1 181753Z 25025G31KT 15/00 A2975 RMK A01 T01460000  RH  037%=      5-min Rain = 0
KBO1 181754Z 26029KT 15/M00 A2975 RMK A01 T01471002  RH  036%=      5-min Rain = 0
KBO1 181755Z 26027KT 15/M00 A2975 RMK A01 T01461003  RH  036%=      5-min Rain = 0
KBO1 181756Z 26026KT 15/M00 A2975 RMK A01 T01471001  RH  036%=      5-min Rain = 0
KBO1 181757Z 27024G30KT 15/M01 A2975 RMK A01 T01511010  RH  033%=      5-min Rain = 0
KBO1 181758Z 26027G37KT 15/M01 A2974 RMK A01 T01531011  RH  032%=      5-min Rain = 0
KBO1 181759Z 26036KT 15/M03 A2974 RMK A01 T01541027  RH  029%=      5-min Rain = 0
KBO1 181800Z 27028G34KT 15/M04 A2974 RMK A01 T01501042  RH  026%=      5-min Rain = 0
KBO1 181801Z 27030KT 15/M04 A2974 RMK A01 T01461043  RH  027%=      5-min Rain = 0
KBO1 181802Z 27027G37KT 14/M04 A2974 RMK A01 T01441041  RH  027%=      5-min Rain = 0
KBO1 181803Z 27029G35KT 14/M04 A2974 RMK A01 T01441037  RH  028%=      5-min Rain = 0
KBO1 181804Z 27028KT 15/M04 A2974 RMK A01 T01451036  RH  028%=      5-min Rain = 0
KBO1 181805Z 27028G35KT 15/M04 A2974 RMK A01 T01451036  RH  028%=      5-min Rain = 0
KBO1 181806Z 26024G34KT 15/M04 A2974 RMK A01 T01461038  RH  028%=      5-min Rain = 0
KBO1 181807Z 26026G38KT 15/M04 A2974 RMK A01 T01481036  RH  028%=      5-min Rain = 0
KBO1 181808Z 27029KT 15/M04 A2974 RMK A01 T01491038  RH  027%=      5-min Rain = 0
KBO1 181809Z 26027KT 15/M04 A2974 RMK A01 T01461037  RH  028%=      5-min Rain = 0
KBO1 181810Z 26030G35KT 14/M04 A2974 RMK A01 T01441036  RH  029%=      5-min Rain = 0
KBO1 181811Z 27026G32KT 14/M04 A2974 RMK A01 T01441035  RH  029%=      5-min Rain = 0
KBO1 181812Z 26030G37KT 15/M04 A2974 RMK A01 T01471037  RH  028%=      5-min Rain = 0
KBO1 181813Z 27028G35KT 15/M04 A2974 RMK A01 T01481039  RH  027%=      5-min Rain = 0
KBO1 181814Z 27031G37KT 15/M04 A2974 RMK A01 T01491035  RH  028%=      5-min Rain = 0
KBO1 181815Z 26034G41KT 15/M04 A2973 RMK A01 T01481036  RH  028%=      5-min Rain = 0
KBO1 181816Z 26027G32KT 14/M04 A2974 RMK A01 T01421043  RH  028%=      5-min Rain = 0
KBO1 181817Z 27024G29KT 14/M04 A2974 RMK A01 T01391039  RH  029%=      5-min Rain = 0
KBO1 181818Z 27022KT 14/M03 A2974 RMK A01 T01381034  RH  030%=      5-min Rain = 0
KBO1 181819Z 27022G29KT 14/M03 A2974 RMK A01 T01411030  RH  030%=      5-min Rain = 0
KBO1 181820Z 27026G31KT 15/M03 A2973 RMK A01 T01451027  RH  030%=      5-min Rain = 0
KBO1 181821Z 26024G32KT 15/M03 A2973 RMK A01 T01491030  RH  029%=      5-min Rain = 0
KBO1 181822Z 26029KT 15/M03 A2973 RMK A01 T01521032  RH  028%=      5-min Rain = 0
KBO1 181823Z 27023G29KT 15/M03 A2973 RMK A01 T01511031  RH  028%=      5-min Rain = 0
KBO1 181824Z 26022G27KT 15/M03 A2973 RMK A01 T01491030  RH  029%=      5-min Rain = 0
KBO1 181825Z 26027KT 15/M02 A2973 RMK A01 T01521022  RH  030%=      5-min Rain = 0
KBO1 181826Z 26023KT 15/M02 A2973 RMK A01 T01521022  RH  030%=      5-min Rain = 0
KBO1 181827Z 25027G35KT 15/M02 A2973 RMK A01 T01521018  RH  031%=      5-min Rain = 0
KBO1 181828Z 26029G36KT 15/M02 A2973 RMK A01 T01511020  RH  031%=      5-min Rain = 0
KBO1 181829Z 25029G36KT 15/M02 A2973 RMK A01 T01491020  RH  031%=      5-min Rain = 0
KBO1 181830Z 25026KT 15/M02 A2973 RMK A01 T01491016  RH  032%=      5-min Rain = 0
KBO1 181831Z 25024G29KT 15/M01 A2973 RMK A01 T01481014  RH  033%=      5-min Rain = 0
KBO1 181832Z 25029G34KT 15/M02 A2973 RMK A01 T01491016  RH  032%=      5-min Rain = 0
KBO1 181833Z 25024G30KT 15/M01 A2973 RMK A01 T01471014  RH  033%=      5-min Rain = 0
KBO1 181834Z 25025KT 15/M01 A2973 RMK A01 T01471012  RH  034%=      5-min Rain = 0
KBO1 181835Z 25021G26KT 15/M01 A2973 RMK A01 T01481009  RH  034%=      5-min Rain = 0
KBO1 181836Z 26024G29KT 15/M01 A2973 RMK A01 T01501011  RH  033%=      5-min Rain = 0
KBO1 181837Z 26024KT 15/M02 A2973 RMK A01 T01481016  RH  032%=      5-min Rain = 0
KBO1 181838Z 26026G31KT 15/M01 A2972 RMK A01 T01471013  RH  033%=      5-min Rain = 0
KBO1 181839Z 26026G32KT 15/M01 A2972 RMK A01 T01471009  RH  034%=      5-min Rain = 0
KBO1 181840Z 25029G35KT 15/M01 A2972 RMK A01 T01471009  RH  034%=      5-min Rain = 0
KBO1 181841Z 25025KT 15/M01 A2972 RMK A01 T01461007  RH  035%=      5-min Rain = 0
KBO1 181842Z 25024G31KT 15/M01 A2972 RMK A01 T01461006  RH  035%=      5-min Rain = 0
KBO1 181843Z 26025G30KT 15/M01 A2972 RMK A01 T01471007  RH  035%=      5-min Rain = 0
KBO1 181844Z 26024G29KT 15/M01 A2972 RMK A01 T01461006  RH  035%=      5-min Rain = 0
KBO1 181845Z 26025G30KT 15/M01 A2972 RMK A01 T01461006  RH  035%=      5-min Rain = 0
KBO1 181846Z 25024G31KT 15/M01 A2972 RMK A01 T01471006  RH  035%=      5-min Rain = 0
KBO1 181847Z 25027G33KT 15/M01 A2971 RMK A01 T01481007  RH  035%=      5-min Rain = 0
KBO1 181848Z 25027G33KT 15/M01 A2971 RMK A01 T01451007  RH  035%=      5-min Rain = 0
KBO1 181849Z 25026G32KT 14/M01 A2971 RMK A01 T01441006  RH  036%=      5-min Rain = 0
KBO1 181850Z 26026KT 14/M01 A2971 RMK A01 T01431006  RH  036%=      5-min Rain = 0
KBO1 181851Z 25025G30KT 14/M01 A2971 RMK A01 T01441007  RH  035%=      5-min Rain = 0
KBO1 181852Z 25023G30KT 15/M01 A2971 RMK A01 T01461006  RH  035%=      5-min Rain = 0
KBO1 181853Z 24026G31KT 15/M01 A297 RMK A01 T01481005  RH  035%=      5-min Rain = 0
KBO1 181854Z 25025G31KT 15/M01 A297 RMK A01 T01481006  RH  035%=      5-min Rain = 0
KBO1 181855Z 25023KT 15/M01 A297 RMK A01 T01471007  RH  035%=      5-min Rain = 0
KBO1 181856Z 25023G28KT 15/M01 A297 RMK A01 T01491007  RH  034%=      5-min Rain = 0
KBO1 181857Z 25021G26KT 15/M01 A297 RMK A01 T01501010  RH  033%=      5-min Rain = 0
KBO1 181858Z 26028G35KT 15/M01 A2969 RMK A01 T01531011  RH  033%=      5-min Rain = 0
KBO1 181859Z 26029G35KT 15/M02 A2969 RMK A01 T01521023  RH  030%=      5-min Rain = 0
KBO1 181900Z 26028KT 15/M03 A2969 RMK A01 T01521025  RH  030%=      5-min Rain = 0
KBO1 181901Z 26026G32KT 15/M03 A2969 RMK A01 T01521026  RH  029%=      5-min Rain = 0
KBO1 181902Z 26027G32KT 15/M03 A2969 RMK A01 T01521028  RH  029%=      5-min Rain = 0
KBO1 181903Z 26027G32KT 15/M03 A2969 RMK A01 T01511026  RH  029%=      5-min Rain = 0
KBO1 181904Z 25026KT 15/M02 A2969 RMK A01 T01531021  RH  030%=      5-min Rain = 0
KBO1 181905Z 25027KT 15/M02 A2969 RMK A01 T01531022  RH  030%=      5-min Rain = 0
KBO1 181906Z 25032G38KT 15/M02 A2969 RMK A01 T01541021  RH  030%=      5-min Rain = 0
KBO1 181907Z 25032KT 15/M03 A2968 RMK A01 T01521025  RH  029%=      5-min Rain = 0
KBO1 181908Z 26030KT 15/M03 A2968 RMK A01 T01501029  RH  029%=      5-min Rain = 0
KBO1 181909Z 25029KT 15/M03 A2968 RMK A01 T01481029  RH  029%=      5-min Rain = 0
KBO1 181910Z 25032G38KT 15/M03 A2968 RMK A01 T01461032  RH  029%=      5-min Rain = 0
KBO1 181911Z 25028G35KT 14/M04 A2968 RMK A01 T01411036  RH  029%=      5-min Rain = 0
KBO1 181912Z 25028G34KT 14/M04 A2968 RMK A01 T01381036  RH  030%=      5-min Rain = 0
KBO1 181913Z 25027G33KT 14/M03 A2968 RMK A01 T01351033  RH  031%=      5-min Rain = 0
KBO1 181914Z 25024KT 13/M03 A2968 RMK A01 T01331032  RH  032%=      5-min Rain = 0
KBO1 181915Z 25025G30KT 13/M03 A2968 RMK A01 T01321031  RH  032%=      5-min Rain = 0
KBO1 181916Z 25027G33KT 13/M03 A2968 RMK A01 T01311032  RH  032%=      5-min Rain = 0
KBO1 181917Z 25028G36KT 13/M03 A2968 RMK A01 T01311031  RH  032%=      5-min Rain = 0
KBO1 181918Z 25028G35KT 13/M03 A2968 RMK A01 T01311032  RH  032%=      5-min Rain = 0
KBO1 181919Z 25031G37KT 13/M03 A2968 RMK A01 T01311032  RH  032%=      5-min Rain = 0
KBO1 181920Z 25028G34KT 13/M03 A2968 RMK A01 T01301031  RH  032%=      5-min Rain = 0
KBO1 181921Z 25024G31KT 13/M03 A2969 RMK A01 T01301030  RH  033%=      5-min Rain = 0
KBO1 181922Z 26028G36KT 13/M03 A2968 RMK A01 T01291030  RH  033%=      5-min Rain = 0
KBO1 181923Z 25031G38KT 13/M03 A2968 RMK A01 T01281032  RH  033%=      5-min Rain = 0
KBO1 181924Z 26027G33KT 13/M03 A2968 RMK A01 T01281034  RH  032%=      5-min Rain = 0
KBO1 181925Z 25031G36KT 13/M03 A2968 RMK A01 T01281034  RH  032%=      5-min Rain = 0
KBO1 181926Z 25026G32KT 13/M04 A2968 RMK A01 T01271035  RH  032%=      5-min Rain = 0
KBO1 181927Z 25026KT 13/M03 A2968 RMK A01 T01271034  RH  032%=      5-min Rain = 0
KBO1 181928Z 25026G33KT 13/M03 A2969 RMK A01 T01271034  RH  032%=      5-min Rain = 0
KBO1 181929Z 26028G36KT 13/M03 A2968 RMK A01 T01271033  RH  033%=      5-min Rain = 0
KBO1 181930Z 25029G35KT 13/M03 A2968 RMK A01 T01281033  RH  032%=      5-min Rain = 0
KBO1 181931Z 25028KT 13/M03 A2968 RMK A01 T01291033  RH  032%=      5-min Rain = 0
KBO1 181932Z 26026G32KT 13/M03 A2968 RMK A01 T01311032  RH  032%=      5-min Rain = 0
KBO1 181933Z 26028G35KT 13/M03 A2968 RMK A01 T01331033  RH  032%=      5-min Rain = 0
KBO1 181934Z 25028G34KT 13/M03 A2968 RMK A01 T01341034  RH  031%=      5-min Rain = 0
KBO1 181935Z 26024G30KT 14/M03 A2968 RMK A01 T01361032  RH  031%=      5-min Rain = 0
KBO1 181936Z 26024G31KT 14/M03 A2968 RMK A01 T01391031  RH  031%=      5-min Rain = 0
KBO1 181937Z 26028G35KT 14/M03 A2968 RMK A01 T01401034  RH  030%=      5-min Rain = 0
KBO1 181938Z 26028G33KT 14/M04 A2968 RMK A01 T01401038  RH  029%=      5-min Rain = 0
KBO1 181939Z 26026G31KT 14/M04 A2968 RMK A01 T01381038  RH  029%=      5-min Rain = 0
KBO1 181940Z 26029G35KT 14/M04 A2967 RMK A01 T01381041  RH  029%=      5-min Rain = 0
KBO1 181941Z 26021KT 14/M04 A2968 RMK A01 T01371042  RH  029%=      5-min Rain = 0
KBO1 181942Z 26025G30KT 14/M04 A2967 RMK A01 T01391038  RH  029%=      5-min Rain = 0
KBO1 181943Z 26022KT 14/M04 A2967 RMK A01 T01411035  RH  029%=      5-min Rain = 0
KBO1 181944Z 26027G33KT 15/M03 A2967 RMK A01 T01451033  RH  029%=      5-min Rain = 0
KBO1 181945Z 25028G34KT 15/M04 A2967 RMK A01 T01461039  RH  028%=      5-min Rain = 0
KBO1 181946Z 25030KT 15/M04 A2966 RMK A01 T01451038  RH  028%=      5-min Rain = 0
KBO1 181947Z 25029KT 15/M04 A2966 RMK A01 T01451038  RH  028%=      5-min Rain = 0
KBO1 181948Z 26024G30KT 15/M04 A2966 RMK A01 T01451040  RH  028%=      5-min Rain = 0
KBO1 181949Z 26026G34KT 15/M04 A2966 RMK A01 T01451042  RH  027%=      5-min Rain = 0
KBO1 181950Z 26026KT 15/M05 A2966 RMK A01 T01451045  RH  027%=      5-min Rain = 0
KBO1 181951Z 26027G33KT 15/M05 A2966 RMK A01 T01471047  RH  026%=      5-min Rain = 0
KBO1 181952Z 26027G32KT 15/M05 A2966 RMK A01 T01481050  RH  025%=      5-min Rain = 0
KBO1 181953Z 26022G27KT 15/M05 A2966 RMK A01 T01491050  RH  025%=      5-min Rain = 0
KBO1 181954Z 26022G28KT 15/M05 A2966 RMK A01 T01501050  RH  025%=      5-min Rain = 0
KBO1 181955Z 26023G28KT 15/M05 A2966 RMK A01 T01511052  RH  024%=      5-min Rain = 0
KBO1 181956Z 25025KT 15/M05 A2966 RMK A01 T01501052  RH  024%=      5-min Rain = 0
KBO1 181957Z 26026KT 15/M05 A2966 RMK A01 T01491053  RH  024%=      5-min Rain = 0
KBO1 181958Z 26021KT 15/M05 A2966 RMK A01 T01501053  RH  024%=      5-min Rain = 0
KBO1 181959Z 26023G29KT 16/M05 A2966 RMK A01 T01551054  RH  023%=      5-min Rain = 0
KBO1 182000Z 26025KT 16/M05 A2966 RMK A01 T01611054  RH  022%=      5-min Rain = 0
KBO1 182001Z 27024KT 16/M06 A2966 RMK A01 T01601059  RH  022%=      5-min Rain = 0
KBO1 182002Z 26023KT 16/M06 A2966 RMK A01 T01561063  RH  022%=      5-min Rain = 0
KBO1 182003Z 26022KT 16/M06 A2966 RMK A01 T01551061  RH  022%=      5-min Rain = 0
KBO1 182004Z 26020G25KT 16/M06 A2966 RMK A01 T01601059  RH  022%=      5-min Rain = 0
KBO1 182005Z 26021G26KT 16/M06 A2966 RMK A01 T01631063  RH  021%=      5-min Rain = 0
KBO1 182006Z 26022G27KT 16/M07 A2965 RMK A01 T01611065  RH  021%=      5-min Rain = 0
KBO1 182007Z 25027G34KT 16/M07 A2965 RMK A01 T01591069  RH  020%=      5-min Rain = 0
KBO1 182008Z 26026KT 16/M07 A2965 RMK A01 T01561074  RH  020%=      5-min Rain = 0
KBO1 182009Z 26028G34KT 15/M08 A2965 RMK A01 T01531076  RH  020%=      5-min Rain = 0
KBO1 182010Z 26025KT 15/M08 A2965 RMK A01 T01511076  RH  020%=      5-min Rain = 0
KBO1 182011Z 25028G34KT 15/M07 A2965 RMK A01 T01511072  RH  021%=      5-min Rain = 0
KBO1 182012Z 26027KT 15/M07 A2965 RMK A01 T01521070  RH  021%=      5-min Rain = 0
KBO1 182013Z 26025G30KT 15/M07 A2965 RMK A01 T01531070  RH  021%=      5-min Rain = 0
KBO1 182014Z 25027KT 15/M07 A2965 RMK A01 T01521072  RH  021%=      5-min Rain = 0
KBO1 182015Z 26025KT 15/M07 A2965 RMK A01 T01511074  RH  020%=      5-min Rain = 0
KBO1 182016Z 25028G33KT 15/M08 A2964 RMK A01 T01501075  RH  020%=      5-min Rain = 0
KBO1 182017Z 26025G31KT 15/M08 A2964 RMK A01 T01501077  RH  020%=      5-min Rain = 0
KBO1 182018Z 26026KT 15/M08 A2964 RMK A01 T01541075  RH  020%=      5-min Rain = 0
KBO1 182019Z 26026KT 16/M08 A2964 RMK A01 T01571075  RH  020%=      5-min Rain = 0
KBO1 182020Z 26024KT 16/M08 A2964 RMK A01 T01621075  RH  019%=      5-min Rain = 0
KBO1 182021Z 27023G29KT 16/M08 A2964 RMK A01 T01641076  RH  019%=      5-min Rain = 0
KBO1 182022Z 25024G31KT 17/M07 A2964 RMK A01 T01671072  RH  019%=      5-min Rain = 0
KBO1 182023Z 25025G30KT 17/M07 A2964 RMK A01 T01691071  RH  019%=      5-min Rain = 0
KBO1 182024Z 25028G34KT 17/M07 A2964 RMK A01 T01691069  RH  019%=      5-min Rain = 0
KBO1 182025Z 25030G36KT 17/M07 A2964 RMK A01 T01711069  RH  019%=      5-min Rain = 0
KBO1 182026Z 25024KT 17/M07 A2964 RMK A01 T01701070  RH  019%=      5-min Rain = 0
KBO1 182027Z 25028KT 17/M06 A2964 RMK A01 T01721064  RH  019%=      5-min Rain = 0
KBO1 182028Z 25028G33KT 17/M07 A2964 RMK A01 T01691065  RH  020%=      5-min Rain = 0
KBO1 182029Z 24032G37KT 16/M07 A2964 RMK A01 T01631066  RH  020%=      5-min Rain = 0
KBO1 182030Z 26030G36KT 16/M07 A2964 RMK A01 T01591068  RH  020%=      5-min Rain = 0
KBO1 182031Z 25029G34KT 16/M07 A2964 RMK A01 T01561070  RH  020%=      5-min Rain = 0
KBO1 182032Z 26028G33KT 15/M07 A2964 RMK A01 T01521071  RH  021%=      5-min Rain = 0
KBO1 182033Z 26027G34KT 15/M07 A2964 RMK A01 T01521069  RH  021%=      5-min Rain = 0
KBO1 182034Z 25030G35KT 16/M07 A2964 RMK A01 T01551066  RH  021%=      5-min Rain = 0
KBO1 182035Z 26027KT 16/M07 A2964 RMK A01 T01571066  RH  021%=      5-min Rain = 0
KBO1 182036Z 26020G32KT 16/M07 A2965 RMK A01 T01571066  RH  021%=      5-min Rain = 0
KBO1 182037Z 27025G31KT 16/M07 A2964 RMK A01 T01571069  RH  020%=      5-min Rain = 0
KBO1 182038Z 25025G31KT 15/M07 A2965 RMK A01 T01541067  RH  021%=      5-min Rain = 0
KBO1 182039Z 25029KT 15/M06 A2965 RMK A01 T01501058  RH  023%=      5-min Rain = 0
KBO1 182040Z 24027G34KT 15/M06 A2965 RMK A01 T01481056  RH  024%=      5-min Rain = 0
KBO1 182041Z 25029KT 15/M06 A2965 RMK A01 T01481055  RH  024%=      5-min Rain = 0
KBO1 182042Z 25030G36KT 15/M06 A2965 RMK A01 T01481055  RH  024%=      5-min Rain = 0
KBO1 182043Z 26024KT 15/M05 A2965 RMK A01 T01501054  RH  024%=      5-min Rain = 0
KBO1 182044Z 25029G36KT 15/M05 A2966 RMK A01 T01531054  RH  024%=      5-min Rain = 0
KBO1 182045Z 26026G32KT 15/M06 A2966 RMK A01 T01531056  RH  023%=      5-min Rain = 0
KBO1 182046Z 26022G29KT 15/M05 A2966 RMK A01 T01541054  RH  023%=      5-min Rain = 0
KBO1 182047Z 25025G31KT 16/M05 A2966 RMK A01 T01581053  RH  023%=      5-min Rain = 0
KBO1 182048Z 26025G32KT 16/M06 A2966 RMK A01 T01571056  RH  023%=      5-min Rain = 0
KBO1 182049Z 27027G33KT 16/M06 A2967 RMK A01 T01551056  RH  023%=      5-min Rain = 0
KBO1 182050Z 27028G33KT 15/M06 A2967 RMK A01 T01541057  RH  023%=      5-min Rain = 0
KBO1 182051Z 27024G29KT 15/M06 A2967 RMK A01 T01511057  RH  023%=      5-min Rain = 0
KBO1 182052Z 27027G34KT 15/M06 A2967 RMK A01 T01491057  RH  024%=      5-min Rain = 0
KBO1 182053Z 27025G30KT 15/M06 A2967 RMK A01 T01471059  RH  024%=      5-min Rain = 0
KBO1 182054Z 27027G32KT 15/M06 A2966 RMK A01 T01451060  RH  024%=      5-min Rain = 0
KBO1 182055Z 27030G35KT 15/M06 A2966 RMK A01 T01451058  RH  024%=      5-min Rain = 0
KBO1 182056Z 27029G35KT 14/M06 A2966 RMK A01 T01441060  RH  024%=      5-min Rain = 0
KBO1 182057Z 27026G32KT 14/M06 A2967 RMK A01 T01431064  RH  023%=      5-min Rain = 0
KBO1 182058Z 28025G30KT 14/M06 A2967 RMK A01 T01421064  RH  023%=      5-min Rain = 0
KBO1 182059Z 28027KT 14/M06 A2966 RMK A01 T01411061  RH  024%=      5-min Rain = 0
KBO1 182100Z 27025KT 14/M06 A2966 RMK A01 T01411058  RH  025%=      5-min Rain = 0
KBO1 182101Z 27024KT 14/M06 A2966 RMK A01 T01411058  RH  025%=      5-min Rain = 0
KBO1 182102Z 26028KT 14/M06 A2966 RMK A01 T01401058  RH  025%=      5-min Rain = 0
KBO1 182103Z 27023G28KT 14/M06 A2966 RMK A01 T01401057  RH  025%=      5-min Rain = 0
KBO1 182104Z 27022KT 14/M06 A2966 RMK A01 T01401056  RH  025%=      5-min Rain = 0
KBO1 182105Z 27024G30KT 14/M06 A2966 RMK A01 T01401057  RH  025%=      5-min Rain = 0
KBO1 182106Z 27022KT 14/M06 A2966 RMK A01 T01391057  RH  025%=      5-min Rain = 0
KBO1 182107Z 27023G28KT 14/M06 A2966 RMK A01 T01391057  RH  025%=      5-min Rain = 0
KBO1 182108Z 27024KT 14/M06 A2966 RMK A01 T01391055  RH  026%=      5-min Rain = 0
KBO1 182109Z 27020G26KT 14/M05 A2966 RMK A01 T01391054  RH  026%=      5-min Rain = 0
KBO1 182110Z 27021KT 14/M05 A2966 RMK A01 T01391052  RH  026%=      5-min Rain = 0
KBO1 182111Z 27019KT 14/M05 A2966 RMK A01 T01401052  RH  026%=      5-min Rain = 0
KBO1 182112Z 27022G27KT 14/M05 A2966 RMK A01 T01421052  RH  026%=      5-min Rain = 0
KBO1 182113Z 27023KT 14/M05 A2966 RMK A01 T01421052  RH  026%=      5-min Rain = 0
KBO1 182114Z 26029G35KT 14/M05 A2966 RMK A01 T01421054  RH  025%=      5-min Rain = 0
KBO1 182115Z 26029G36KT 14/M06 A2966 RMK A01 T01391058  RH  025%=      5-min Rain = 0
KBO1 182116Z 26030G35KT 14/M06 A2965 RMK A01 T01371059  RH  025%=      5-min Rain = 0
KBO1 182117Z 26023G29KT 14/M06 A2966 RMK A01 T01351060  RH  025%=      5-min Rain = 0
KBO1 182118Z 26028G37KT 14/M06 A2966 RMK A01 T01361058  RH  026%=      5-min Rain = 0
KBO1 182119Z 27027KT 14/M06 A2966 RMK A01 T01351058  RH  026%=      5-min Rain = 0
KBO1 182120Z 26029G40KT 13/M06 A2966 RMK A01 T01341057  RH  026%=      5-min Rain = 0
KBO1 182121Z 26028G34KT 13/M06 A2966 RMK A01 T01331056  RH  027%=      5-min Rain = 0
KBO1 182122Z 26026KT 13/M05 A2966 RMK A01 T01331054  RH  027%=      5-min Rain = 0
KBO1 182123Z 26027KT 13/M05 A2966 RMK A01 T01331053  RH  027%=      5-min Rain = 0
KBO1 182124Z 27024G30KT 13/M05 A2966 RMK A01 T01331053  RH  027%=      5-min Rain = 0
KBO1 182125Z 27025G34KT 13/M05 A2966 RMK A01 T01321054  RH  027%=      5-min Rain = 0
KBO1 182126Z 27024G30KT 13/M06 A2966 RMK A01 T01311057  RH  027%=      5-min Rain = 0
KBO1 182127Z 28022KT 13/M06 A2966 RMK A01 T01301058  RH  027%=      5-min Rain = 0
KBO1 182128Z 27022G29KT 13/M06 A2966 RMK A01 T01291058  RH  027%=      5-min Rain = 0
KBO1 182129Z 28024KT 13/M06 A2967 RMK A01 T01291057  RH  027%=      5-min Rain = 0
KBO1 182130Z 28022KT 13/M06 A2967 RMK A01 T01271057  RH  027%=      5-min Rain = 0
KBO1 182131Z 28021G27KT 13/M06 A2967 RMK A01 T01271057  RH  027%=      5-min Rain = 0
KBO1 182132Z 28025G31KT 13/M06 A2967 RMK A01 T01261057  RH  027%=      5-min Rain = 0
KBO1 182133Z 27024KT 13/M06 A2967 RMK A01 T01251058  RH  027%=      5-min Rain = 0
KBO1 182134Z 28019KT 13/M06 A2967 RMK A01 T01251057  RH  028%=      5-min Rain = 0
KBO1 182135Z 27017KT 13/M06 A2967 RMK A01 T01251056  RH  028%=      5-min Rain = 0
KBO1 182136Z 28020G25KT 13/M06 A2967 RMK A01 T01251056  RH  028%=      5-min Rain = 0
KBO1 182137Z 27019KT 13/M06 A2967 RMK A01 T01251056  RH  028%=      5-min Rain = 0
KBO1 182138Z 27025G31KT 13/M06 A2967 RMK A01 T01251056  RH  028%=      5-min Rain = 0
KBO1 182139Z 27026KT 13/M06 A2967 RMK A01 T01251058  RH  027%=      5-min Rain = 0
KBO1 182140Z 27026G32KT 12/M06 A2967 RMK A01 T01241059  RH  027%=      5-min Rain = 0
KBO1 182141Z 27028KT 12/M06 A2967 RMK A01 T01241060  RH  027%=      5-min Rain = 0
KBO1 182142Z 28026KT 13/M06 A2967 RMK A01 T01251058  RH  027%=      5-min Rain = 0
KBO1 182143Z 27026G33KT 13/M06 A2967 RMK A01 T01261056  RH  027%=      5-min Rain = 0
KBO1 182144Z 27027G32KT 13/M05 A2967 RMK A01 T01281054  RH  028%=      5-min Rain = 0
KBO1 182145Z 28023G31KT 13/M05 A2967 RMK A01 T01301052  RH  028%=      5-min Rain = 0
KBO1 182146Z 27023G28KT 13/M05 A2967 RMK A01 T01331049  RH  028%=      5-min Rain = 0
KBO1 182147Z 29027G34KT 14/M05 A2967 RMK A01 T01361048  RH  028%=      5-min Rain = 0
KBO1 182148Z 29030KT 14/M05 A2967 RMK A01 T01361049  RH  027%=      5-min Rain = 0
KBO1 182149Z 28028G33KT 14/M05 A2967 RMK A01 T01351050  RH  027%=      5-min Rain = 0
KBO1 182150Z 28027G33KT 14/M05 A2967 RMK A01 T01351050  RH  027%=      5-min Rain = 0
KBO1 182151Z 28028KT 13/M05 A2967 RMK A01 T01341051  RH  027%=      5-min Rain = 0
KBO1 182152Z 28026G32KT 13/M05 A2968 RMK A01 T01341050  RH  027%=      5-min Rain = 0
KBO1 182153Z 29024KT 14/M05 A2968 RMK A01 T01351049  RH  027%=      5-min Rain = 0
KBO1 182154Z 28019KT 14/M05 A2968 RMK A01 T01371048  RH  027%=      5-min Rain = 0
KBO1 182155Z 28022G28KT 14/M05 A2968 RMK A01 T01391047  RH  027%=      5-min Rain = 0
KBO1 182156Z 29023G31KT 14/M05 A2968 RMK A01 T01401048  RH  027%=      5-min Rain = 0
KBO1 182157Z 29026KT 14/M05 A2968 RMK A01 T01391049  RH  027%=      5-min Rain = 0
KBO1 182158Z 28024G31KT 14/M05 A2968 RMK A01 T01371049  RH  027%=      5-min Rain = 0
KBO1 182159Z 29025G30KT 14/M05 A2968 RMK A01 T01371048  RH  027%=      5-min Rain = 0
KBO1 182200Z 29028G33KT 14/M05 A2968 RMK A01 T01381047  RH  027%=      5-min Rain = 0
KBO1 182201Z 29026G32KT 14/M05 A2968 RMK A01 T01381048  RH  027%=      5-min Rain = 0
KBO1 182202Z 28027G33KT 14/M05 A2968 RMK A01 T01381048  RH  027%=      5-min Rain = 0
KBO1 182203Z 27027KT 14/M05 A2968 RMK A01 T01371049  RH  027%=      5-min Rain = 0
KBO1 182204Z 28025G31KT 14/M05 A2968 RMK A01 T01371048  RH  027%=      5-min Rain = 0
KBO1 182205Z 27025G32KT 14/M05 A2968 RMK A01 T01381047  RH  027%=      5-min Rain = 0
KBO1 182206Z 28024G29KT 14/M05 A2969 RMK A01 T01381048  RH  027%=      5-min Rain = 0
KBO1 182207Z 27024KT 14/M05 A2968 RMK A01 T01381048  RH  027%=      5-min Rain = 0
KBO1 182208Z 27025KT 14/M05 A2968 RMK A01 T01361049  RH  027%=      5-min Rain = 0
KBO1 182209Z 28020G27KT 14/M05 A2969 RMK A01 T01371048  RH  027%=      5-min Rain = 0
KBO1 182210Z 28023KT 14/M05 A2969 RMK A01 T01391046  RH  027%=      5-min Rain = 0
KBO1 182211Z 28024KT 14/M05 A2968 RMK A01 T01381047  RH  027%=      5-min Rain = 0
KBO1 182212Z 27023G28KT 14/M05 A2968 RMK A01 T01361047  RH  028%=      5-min Rain = 0
KBO1 182213Z 27026G31KT 14/M05 A2969 RMK A01 T01351048  RH  028%=      5-min Rain = 0
KBO1 182214Z 28024G30KT 13/M05 A2969 RMK A01 T01301049  RH  028%=      5-min Rain = 0
KBO1 182215Z 27023KT 13/M05 A2969 RMK A01 T01301047  RH  029%=      5-min Rain = 0
KBO1 182216Z 27022G29KT 13/M05 A2969 RMK A01 T01301046  RH  029%=      5-min Rain = 0
KBO1 182217Z 27022G27KT 13/M04 A2969 RMK A01 T01321044  RH  029%=      5-min Rain = 0
KBO1 182218Z 28023G29KT 13/M04 A2969 RMK A01 T01331044  RH  029%=      5-min Rain = 0
KBO1 182219Z 28021KT 13/M04 A2969 RMK A01 T01331043  RH  029%=      5-min Rain = 0
KBO1 182220Z 27021KT 13/M04 A2969 RMK A01 T01341041  RH  029%=      5-min Rain = 0
KBO1 182221Z 27021G27KT 14/M04 A2969 RMK A01 T01351041  RH  029%=      5-min Rain = 0
KBO1 182222Z 27026KT 14/M04 A2969 RMK A01 T01351043  RH  029%=      5-min Rain = 0
KBO1 182223Z 28024KT 13/M04 A2969 RMK A01 T01341043  RH  029%=      5-min Rain = 0
KBO1 182224Z 27021KT 13/M04 A2969 RMK A01 T01331043  RH  029%=      5-min Rain = 0
KBO1 182225Z 27024KT 13/M04 A2969 RMK A01 T01321043  RH  029%=      5-min Rain = 0
KBO1 182226Z 27023KT 13/M04 A2969 RMK A01 T01331043  RH  029%=      5-min Rain = 0
KBO1 182227Z 28024G30KT 13/M04 A2969 RMK A01 T01321043  RH  029%=      5-min Rain = 0
KBO1 182228Z 28024G29KT 13/M04 A2969 RMK A01 T01321044  RH  029%=      5-min Rain = 0
KBO1 182229Z 28025KT 13/M05 A2969 RMK A01 T01321045  RH  029%=      5-min Rain = 0
KBO1 182230Z 28023KT 13/M05 A2969 RMK A01 T01311045  RH  029%=      5-min Rain = 0
KBO1 182231Z 28024G29KT 13/M05 A2969 RMK A01 T01311045  RH  029%=      5-min Rain = 0
KBO1 182232Z 28020G26KT 13/M05 A2969 RMK A01 T01321045  RH  029%=      5-min Rain = 0
KBO1 182233Z 28021KT 13/M04 A2969 RMK A01 T01331044  RH  029%=      5-min Rain = 0
KBO1 182234Z 28026KT 13/M05 A2969 RMK A01 T01331045  RH  029%=      5-min Rain = 0
KBO1 182235Z 28024KT 13/M05 A297 RMK A01 T01331046  RH  029%=      5-min Rain = 0
KBO1 182236Z 28023KT 13/M05 A297 RMK A01 T01331045  RH  029%=      5-min Rain = 0
KBO1 182237Z 28020G25KT 13/M04 A297 RMK A01 T01331043  RH  029%=      5-min Rain = 0
KBO1 182238Z 29021G28KT 14/M04 A297 RMK A01 T01351042  RH  029%=      5-min Rain = 0
KBO1 182239Z 30018G23KT 14/M04 A297 RMK A01 T01351043  RH  029%=      5-min Rain = 0
KBO1 182240Z 29020G26KT 13/M04 A297 RMK A01 T01341043  RH  029%=      5-min Rain = 0
KBO1 182241Z 30024G29KT 13/M04 A297 RMK A01 T01341042  RH  029%=      5-min Rain = 0
KBO1 182242Z 32021KT 13/M03 A2971 RMK A01 T01341032  RH  031%=      5-min Rain = 0
KBO1 182243Z 32016G21KT 13/M03 A2971 RMK A01 T01301026  RH  034%=      5-min Rain = 0
KBO1 182244Z 32016KT 13/M03 A2971 RMK A01 T01261025  RH  035%=      5-min Rain = 0
KBO1 182245Z 33021G30KT 12/M02 A2971 RMK A01 T01231024  RH  036%=      5-min Rain = 0
KBO1 182246Z 34029G38KT 12/M02 A2972 RMK A01 T01201022  RH  037%=      5-min Rain = 0
KBO1 182247Z 34030G35KT 11/M02 A2971 RMK A01 T01121020  RH  040%=      5-min Rain = 0
KBO1 182248Z 34032G41KT 10/M02 A2972 RMK A01 T01031015  RH  044%=      5-min Rain = 0
KBO1 182249Z 35034G42KT 10/M01 A2972 RMK A01 T00951012  RH  047%=      5-min Rain = 0
KBO1 182250Z 34029G35KT 09/M01 A2973 RMK A01 T00901009  RH  050%=      5-min Rain = 0
KBO1 182251Z 34031G40KT 09/M01 A2972 RMK A01 T00861008  RH  051%=      5-min Rain = 0
KBO1 182252Z 34029G38KT 08/M01 A2973 RMK A01 T00841008  RH  052%=      5-min Rain = 0
KBO1 182253Z 34034G39KT 08/M01 A2973 RMK A01 T00831007  RH  053%=      5-min Rain = 0
KBO1 182254Z 34032G37KT 08/M01 A2973 RMK A01 T00801005  RH  055%=      5-min Rain = 0
KBO1 182255Z 33033G38KT 08/M01 A2973 RMK A01 T00761006  RH  056%=      5-min Rain = 0
KBO1 182256Z 33027G33KT 07/M00 A2974 RMK A01 T00741003  RH  058%=      5-min Rain = 0
KBO1 182257Z 33029G36KT 07/00 A2974 RMK A01 T00710002  RH  061%=      5-min Rain = 0
KBO1 182258Z 34032G38KT 07/00 A2974 RMK A01 T00670003  RH  064%=      5-min Rain = 0
KBO1 182259Z 34032KT 07/00 A2974 RMK A01 T00650003  RH  064%=      5-min Rain = 0
KBO1 182300Z 34030G36KT 07/00 A2974 RMK A01 T00650003  RH  065%=      5-min Rain = 0
KBO1 182301Z 34026G34KT 06/00 A2975 RMK A01 T00640004  RH  066%=      5-min Rain = 0
KBO1 182302Z 34029KT 06/01 A2975 RMK A01 T00640005  RH  066%=      5-min Rain = 0
KBO1 182303Z 34029G35KT 06/01 A2976 RMK A01 T00630005  RH  066%=      5-min Rain = 0
KBO1 182304Z 34026G31KT 06/01 A2976 RMK A01 T00630005  RH  066%=      5-min Rain = 0
KBO1 182305Z 34026G32KT 06/01 A2976 RMK A01 T00630006  RH  066%=      5-min Rain = 0
KBO1 182306Z 34027G33KT 06/01 A2976 RMK A01 T00630006  RH  067%=      5-min Rain = 0
KBO1 182307Z 34025G30KT 06/01 A2976 RMK A01 T00630006  RH  067%=      5-min Rain = 0
KBO1 182308Z 34025G30KT 06/01 A2976 RMK A01 T00630006  RH  067%=      5-min Rain = 0
KBO1 182309Z 34028G33KT 06/01 A2976 RMK A01 T00630006  RH  067%=      5-min Rain = 0
KBO1 182310Z 34029G34KT 06/01 A2977 RMK A01 T00630006  RH  067%=      5-min Rain = 0
KBO1 182311Z 34026G31KT 06/01 A2977 RMK A01 T00620005  RH  067%=      5-min Rain = 0
KBO1 182312Z 34026G32KT 06/01 A2977 RMK A01 T00620005  RH  067%=      5-min Rain = 0
KBO1 182313Z 34028KT 06/01 A2977 RMK A01 T00620005  RH  067%=      5-min Rain = 0
KBO1 182314Z 34023G32KT 06/01 A2977 RMK A01 T00620005  RH  067%=      5-min Rain = 0
KBO1 182315Z 34032G38KT 06/01 A2977 RMK A01 T00610005  RH  068%=      5-min Rain = 0
KBO1 182316Z 34031G36KT 06/01 A2977 RMK A01 T00590005  RH  068%=      5-min Rain = 0
KBO1 182317Z 34031G36KT 06/01 A2977 RMK A01 T00580006  RH  069%=      5-min Rain = 0
KBO1 182318Z 34029KT 06/01 A2977 RMK A01 T00570007  RH  070%=      5-min Rain = 0
KBO1 182319Z 34032G38KT 06/01 A2978 RMK A01 T00560007  RH  071%=      5-min Rain = 0
KBO1 182320Z 34026G33KT 05/01 A2978 RMK A01 T00540008  RH  072%=      5-min Rain = 0
KBO1 182321Z 34027G34KT 05/01 A2978 RMK A01 T00530010  RH  074%=      5-min Rain = 0
KBO1 182322Z 34030G36KT 05/01 A2978 RMK A01 T00510011  RH  075%=      5-min Rain = 0
KBO1 182323Z 34029G34KT 05/01 A2978 RMK A01 T00500010  RH  076%=      5-min Rain = 0
KBO1 182324Z 35029G35KT 05/01 A2979 RMK A01 T00490010  RH  076%=      5-min Rain = 0
KBO1 182325Z 34028G33KT 05/01 A2979 RMK A01 T00490010  RH  076%=      5-min Rain = 0
KBO1 182326Z 34024G29KT 05/01 A2979 RMK A01 T00480011  RH  077%=      5-min Rain = 0
KBO1 182327Z 35025G30KT 05/01 A2979 RMK A01 T00480013  RH  078%=      5-min Rain = 0
KBO1 182328Z 34022G27KT 05/02 A298 RMK A01 T00470015  RH  080%=      5-min Rain = 0
KBO1 182329Z 34023KT 05/02 A298 RMK A01 T00460016  RH  081%=      5-min Rain = 0
KBO1 182330Z 34022KT 05/02 A298 RMK A01 T00450016  RH  081%=      5-min Rain = 0
KBO1 182331Z 34025G30KT 05/02 A298 RMK A01 T00450017  RH  082%=      5-min Rain = 0
KBO1 182332Z 34022G28KT 05/02 A2981 RMK A01 T00450017  RH  082%=      5-min Rain = 0
KBO1 182333Z 34023G28KT 05/02 A2981 RMK A01 T00450018  RH  083%=      5-min Rain = 0
KBO1 182334Z 34021KT 04/02 A2981 RMK A01 T00440019  RH  084%=      5-min Rain = 0
KBO1 182335Z 33018KT 04/02 A2981 RMK A01 T00440021  RH  085%=      5-min Rain = 0
KBO1 182336Z 33021G28KT 04/02 A2981 RMK A01 T00430022  RH  086%=      5-min Rain = 0
KBO1 182337Z 33024KT 04/02 A2981 RMK A01 T00420022  RH  087%=      5-min Rain = 0
KBO1 182338Z 34024G29KT 04/02 A2982 RMK A01 T00410022  RH  087%=      5-min Rain = 0
KBO1 182339Z 33020G25KT 04/02 A2982 RMK A01 T00400022  RH  088%=      5-min Rain = 0.01
KBO1 182340Z 33020KT 04/02 A2982 RMK A01 T00390023  RH  089%=      5-min Rain = 0
KBO1 182341Z 34020KT 04/02 A2982 RMK A01 T00390023  RH  089%=      5-min Rain = 0
KBO1 182342Z 33020KT 04/02 A2982 RMK A01 T00390024  RH  090%=      5-min Rain = 0
KBO1 182343Z 33018G24KT 04/02 A2982 RMK A01 T00390024  RH  090%=      5-min Rain = 0
KBO1 182344Z 34022G27KT 04/02 A2982 RMK A01 T00380024  RH  090%=      5-min Rain = 0
KBO1 182345Z 33022G27KT 04/02 A2982 RMK A01 T00380024  RH  090%=      5-min Rain = 0.01
KBO1 182346Z 33021KT 04/02 A2982 RMK A01 T00380023  RH  090%=      5-min Rain = 0
KBO1 182347Z 33022G29KT 04/02 A2983 RMK A01 T00370022  RH  090%=      5-min Rain = 0
KBO1 182348Z 34025G30KT 04/02 A2982 RMK A01 T00370022  RH  090%=      5-min Rain = 0
KBO1 182349Z 34021G27KT 04/02 A2983 RMK A01 T00370021  RH  090%=      5-min Rain = 0.01
KBO1 182350Z 34023G31KT 04/02 A2983 RMK A01 T00360021  RH  090%=      5-min Rain = 0
KBO1 182351Z 34026G33KT 04/02 A2983 RMK A01 T00360021  RH  090%=      5-min Rain = 0
KBO1 182352Z 34028KT 04/02 A2983 RMK A01 T00350019  RH  089%=      5-min Rain = 0.01
KBO1 182353Z 34025KT 04/02 A2983 RMK A01 T00360019  RH  089%=      5-min Rain = 0
KBO1 182354Z 34024G32KT 04/02 A2983 RMK A01 T00350019  RH  089%=      5-min Rain = 0
KBO1 182355Z 34022KT 04/02 A2983 RMK A01 T00350020  RH  090%=      5-min Rain = 0
KBO1 182356Z 34022KT 04/02 A2983 RMK A01 T00350020  RH  090%=      5-min Rain = 0.01
KBO1 182357Z 34021KT 04/02 A2983 RMK A01 T00350020  RH  091%=      5-min Rain = 0
KBO1 182358Z 34018G24KT 03/02 A2984 RMK A01 T00340021  RH  091%=      5-min Rain = 0
KBO1 182359Z 34023KT 03/02 A2984 RMK A01 T00340021  RH  091%=      5-min Rain = 0
KBO1 190000Z 34019KT 03/02 A2984 RMK A01 T00340021  RH  091%=      5-min Rain = 0
KBO1 190001Z 34018KT 03/02 A2984 RMK A01 T00340022  RH  091%=      5-min Rain = 0.01
KBO1 190002Z 34021KT 03/02 A2984 RMK A01 T00340022  RH  092%=      5-min Rain = 0
KBO1 190003Z 34024G32KT 04/02 A2984 RMK A01 T00350022  RH  092%=      5-min Rain = 0
KBO1 190004Z 33023G29KT 03/02 A2984 RMK A01 T00340022  RH  092%=      5-min Rain = 0
KBO1 190005Z 34028KT 03/02 A2984 RMK A01 T00340020  RH  091%=      5-min Rain = 0
KBO1 190006Z 34025G32KT 03/02 A2984 RMK A01 T00330019  RH  090%=      5-min Rain = 0.01
KBO1 190007Z 34023G29KT 03/02 A2984 RMK A01 T00320018  RH  090%=      5-min Rain = 0
KBO1 190008Z 34027G32KT 03/02 A2984 RMK A01 T00320018  RH  090%=      5-min Rain = 0
KBO1 190009Z 34024KT 03/02 A2984 RMK A01 T00310018  RH  091%=      5-min Rain = 0
KBO1 190010Z 34027KT 03/02 A2984 RMK A01 T00310018  RH  091%=      5-min Rain = 0.01
KBO1 190011Z 34023KT 03/02 A2984 RMK A01 T00310018  RH  091%=      5-min Rain = 0
KBO1 190012Z 34022KT 03/02 A2984 RMK A01 T00310018  RH  091%=      5-min Rain = 0
KBO1 190013Z 35023G29KT 03/02 A2985 RMK A01 T00310019  RH  092%=      5-min Rain = 0
KBO1 190014Z 34023KT 03/02 A2985 RMK A01 T00310019  RH  092%=      5-min Rain = 0.01
KBO1 190015Z 35025G31KT 03/02 A2985 RMK A01 T00310019  RH  092%=      5-min Rain = 0
KBO1 190016Z 34026KT 03/02 A2985 RMK A01 T00300019  RH  092%=      5-min Rain = 0
KBO1 190017Z 34021G27KT 03/02 A2985 RMK A01 T00300018  RH  092%=      5-min Rain = 0
KBO1 190018Z 34021KT 03/02 A2985 RMK A01 T00300018  RH  092%=      5-min Rain = 0
KBO1 190019Z 34021G27KT 03/02 A2985 RMK A01 T00300019  RH  092%=      5-min Rain = 0
KBO1 190020Z 34024G32KT 03/02 A2985 RMK A01 T00300019  RH  092%=      5-min Rain = 0.01
KBO1 190021Z 34028KT 03/02 A2985 RMK A01 T00300019  RH  092%=      5-min Rain = 0
KBO1 190022Z 34026G31KT 03/02 A2986 RMK A01 T00300018  RH  092%=      5-min Rain = 0
KBO1 190023Z 34027G33KT 03/02 A2985 RMK A01 T00310018  RH  091%=      5-min Rain = 0
KBO1 190024Z 34028G33KT 03/02 A2985 RMK A01 T00310017  RH  091%=      5-min Rain = 0
KBO1 190025Z 34026KT 03/02 A2986 RMK A01 T00310017  RH  091%=      5-min Rain = 0.01
KBO1 190026Z 34025G31KT 03/02 A2986 RMK A01 T00310017  RH  091%=      5-min Rain = 0
KBO1 190027Z 34025G31KT 03/02 A2986 RMK A01 T00300017  RH  091%=      5-min Rain = 0
KBO1 190028Z 34028KT 03/02 A2986 RMK A01 T00300017  RH  091%=      5-min Rain = 0
KBO1 190029Z 34030G37KT 03/02 A2986 RMK A01 T00300016  RH  091%=      5-min Rain = 0
KBO1 190030Z 34032G37KT 03/02 A2986 RMK A01 T00300016  RH  090%=      5-min Rain = 0
KBO1 190031Z 34026G32KT 03/02 A2986 RMK A01 T00300015  RH  090%=      5-min Rain = 0
KBO1 190032Z 34028G33KT 03/01 A2986 RMK A01 T00300014  RH  090%=      5-min Rain = 0.01
KBO1 190033Z 34026G31KT 03/01 A2987 RMK A01 T00300014  RH  090%=      5-min Rain = 0
KBO1 190034Z 34023G29KT 03/02 A2987 RMK A01 T00300015  RH  090%=      5-min Rain = 0
KBO1 190035Z 34024KT 03/02 A2987 RMK A01 T00300015  RH  090%=      5-min Rain = 0
KBO1 190036Z 34023KT 03/02 A2987 RMK A01 T00290016  RH  091%=      5-min Rain = 0
KBO1 190037Z 34024G30KT 03/02 A2987 RMK A01 T00290016  RH  091%=      5-min Rain = 0
KBO1 190038Z 34029G38KT 03/02 A2987 RMK A01 T00290016  RH  091%=      5-min Rain = 0
KBO1 190039Z 33027G35KT 03/02 A2987 RMK A01 T00290015  RH  090%=      5-min Rain = 0
KBO1 190040Z 34030G36KT 03/01 A2987 RMK A01 T00280013  RH  090%=      5-min Rain = 0
KBO1 190041Z 34028G33KT 03/01 A2987 RMK A01 T00270012  RH  090%=      5-min Rain = 0
KBO1 190042Z 34030G35KT 03/01 A2987 RMK A01 T00270012  RH  090%=      5-min Rain = 0
KBO1 190043Z 33028G34KT 03/01 A2987 RMK A01 T00260012  RH  090%=      5-min Rain = 0
KBO1 190044Z 34031KT 03/01 A2987 RMK A01 T00260012  RH  090%=      5-min Rain = 0
KBO1 190045Z 34026G31KT 03/01 A2988 RMK A01 T00250012  RH  091%=      5-min Rain = 0
KBO1 190046Z 34025KT 03/01 A2988 RMK A01 T00250012  RH  091%=      5-min Rain = 0
KBO1 190047Z 34024G32KT 03/01 A2988 RMK A01 T00250012  RH  091%=      5-min Rain = 0
KBO1 190048Z 34029G36KT 02/01 A2988 RMK A01 T00240012  RH  092%=      5-min Rain = 0
KBO1 190049Z 34024G30KT 02/01 A2988 RMK A01 T00240012  RH  092%=      5-min Rain = 0
KBO1 190050Z 34024KT 02/01 A2988 RMK A01 T00230011  RH  092%=      5-min Rain = 0
KBO1 190051Z 33025KT 02/01 A2988 RMK A01 T00230011  RH  092%=      5-min Rain = 0
KBO1 190052Z 34028KT 02/01 A2989 RMK A01 T00220010  RH  092%=      5-min Rain = 0
KBO1 190053Z 34023G29KT 02/01 A2989 RMK A01 T00210009  RH  092%=      5-min Rain = 0
KBO1 190054Z 34024G30KT 02/01 A2989 RMK A01 T00200008  RH  092%=      5-min Rain = 0
KBO1 190055Z 35025G30KT 02/01 A2989 RMK A01 T00190008  RH  092%=      5-min Rain = 0.01
KBO1 190056Z 34024KT 02/01 A2989 RMK A01 T00190008  RH  092%=      5-min Rain = 0
KBO1 190057Z 34022KT 02/01 A2989 RMK A01 T00190008  RH  093%=      5-min Rain = 0
KBO1 190058Z 34026G33KT 02/01 A2989 RMK A01 T00190009  RH  093%=      5-min Rain = 0
KBO1 190059Z 34026KT 02/01 A2989 RMK A01 T00190009  RH  093%=      5-min Rain = 0.01
KBO1 190100Z 34024KT 02/01 A2989 RMK A01 T00190009  RH  093%=      5-min Rain = 0
KBO1 190101Z 35025KT 02/01 A299 RMK A01 T00190009  RH  093%=      5-min Rain = 0
KBO1 190102Z 34021G28KT 02/01 A299 RMK A01 T00190009  RH  093%=      5-min Rain = 0
KBO1 190103Z 34026G33KT 02/01 A299 RMK A01 T00200010  RH  093%=      5-min Rain = 0
KBO1 190104Z 34024KT 02/01 A299 RMK A01 T00200010  RH  093%=      5-min Rain = 0.01
KBO1 190105Z 34024KT 02/01 A299 RMK A01 T00200010  RH  093%=      5-min Rain = 0
KBO1 190106Z 34024KT 02/01 A299 RMK A01 T00210011  RH  093%=      5-min Rain = 0
KBO1 190107Z 34026KT 02/01 A299 RMK A01 T00210010  RH  093%=      5-min Rain = 0
KBO1 190108Z 34028G34KT 02/01 A299 RMK A01 T00210010  RH  093%=      5-min Rain = 0
KBO1 190109Z 34027KT 02/01 A299 RMK A01 T00200009  RH  093%=      5-min Rain = 0
KBO1 190110Z 34030KT 02/01 A299 RMK A01 T00200009  RH  093%=      5-min Rain = 0
KBO1 190111Z 34029KT 02/01 A299 RMK A01 T00200009  RH  092%=      5-min Rain = 0
KBO1 190112Z 34023G28KT 02/01 A2991 RMK A01 T00200009  RH  092%=      5-min Rain = 0
KBO1 190113Z 34024G29KT 02/01 A2991 RMK A01 T00200009  RH  092%=      5-min Rain = 0.01
KBO1 190114Z 34022G27KT 02/01 A2991 RMK A01 T00200009  RH  092%=      5-min Rain = 0
KBO1 190115Z 35024G30KT 02/01 A2991 RMK A01 T00200009  RH  093%=      5-min Rain = 0
KBO1 190116Z 34026G32KT 02/01 A2991 RMK A01 T00200010  RH  093%=      5-min Rain = 0
KBO1 190117Z 34022KT 02/01 A2991 RMK A01 T00200010  RH  093%=      5-min Rain = 0
KBO1 190118Z 34025G30KT 02/01 A2991 RMK A01 T00200010  RH  093%=      5-min Rain = 0
KBO1 190119Z 34023G32KT 02/01 A2991 RMK A01 T00200010  RH  093%=      5-min Rain = 0
KBO1 190120Z 34026G33KT 02/01 A2991 RMK A01 T00200010  RH  093%=      5-min Rain = 0
KBO1 190121Z 34026G31KT 02/01 A2991 RMK A01 T00200010  RH  093%=      5-min Rain = 0
KBO1 190122Z 34025G30KT 02/01 A2991 RMK A01 T00210010  RH  093%=      5-min Rain = 0
KBO1 190123Z 34024KT 02/01 A2991 RMK A01 T00210010  RH  092%=      5-min Rain = 0
KBO1 190124Z 34026G31KT 02/01 A2991 RMK A01 T00210009  RH  092%=      5-min Rain = 0
KBO1 190125Z 34025G30KT 02/01 A2991 RMK A01 T00200009  RH  092%=      5-min Rain = 0
KBO1 190126Z 34026G31KT 02/01 A2991 RMK A01 T00200009  RH  092%=      5-min Rain = 0.01
KBO1 190127Z 34025KT 02/01 A2991 RMK A01 T00200009  RH  092%=      5-min Rain = 0
KBO1 190128Z 34020G26KT 02/01 A2992 RMK A01 T00190008  RH  093%=      5-min Rain = 0
KBO1 190129Z 34026G33KT 02/01 A2991 RMK A01 T00190009  RH  093%=      5-min Rain = 0
KBO1 190130Z 34026G31KT 02/01 A2992 RMK A01 T00180008  RH  093%=      5-min Rain = 0
KBO1 190131Z 35028G36KT 02/01 A2992 RMK A01 T00180008  RH  093%=      5-min Rain = 0
KBO1 190132Z 34024G30KT 02/01 A2992 RMK A01 T00170007  RH  093%=      5-min Rain = 0
KBO1 190133Z 34027KT 02/01 A2992 RMK A01 T00170007  RH  093%=      5-min Rain = 0
KBO1 190134Z 35023G28KT 02/01 A2992 RMK A01 T00160007  RH  093%=      5-min Rain = 0
KBO1 190135Z 34027G37KT 02/01 A2992 RMK A01 T00160007  RH  094%=      5-min Rain = 0
KBO1 190136Z 35029KT 02/01 A2992 RMK A01 T00150006  RH  094%=      5-min Rain = 0
KBO1 190137Z 34025G31KT 02/01 A2992 RMK A01 T00150006  RH  094%=      5-min Rain = 0.01
KBO1 190138Z 34027G32KT 02/01 A2992 RMK A01 T00150006  RH  094%=      5-min Rain = 0
KBO1 190139Z 34028G34KT 02/01 A2992 RMK A01 T00150006  RH  094%=      5-min Rain = 0
KBO1 190140Z 34025G30KT 01/01 A2992 RMK A01 T00140006  RH  094%=      5-min Rain = 0
KBO1 190141Z 34026G32KT 01/01 A2992 RMK A01 T00140006  RH  094%=      5-min Rain = 0
KBO1 190142Z 34025G30KT 01/01 A2992 RMK A01 T00140006  RH  094%=      5-min Rain = 0.01
KBO1 190143Z 34026KT 01/01 A2993 RMK A01 T00140006  RH  094%=      5-min Rain = 0
KBO1 190144Z 35024G30KT 01/01 A2993 RMK A01 T00130005  RH  094%=      5-min Rain = 0
KBO1 190145Z 35025G30KT 01/01 A2993 RMK A01 T00120005  RH  095%=      5-min Rain = 0
KBO1 190146Z 35027KT 01/00 A2993 RMK A01 T00120004  RH  095%=      5-min Rain = 0
KBO1 190147Z 35024KT 01/00 A2993 RMK A01 T00120004  RH  095%=      5-min Rain = 0.01
KBO1 190148Z 35026KT 01/00 A2993 RMK A01 T00110004  RH  095%=      5-min Rain = 0
KBO1 190149Z 35024KT 01/01 A2994 RMK A01 T00120005  RH  095%=      5-min Rain = 0
KBO1 190150Z 35018KT 01/01 A2994 RMK A01 T00110005  RH  095%=      5-min Rain = 0
KBO1 190151Z 35020KT 01/01 A2994 RMK A01 T00110005  RH  095%=      5-min Rain = 0
KBO1 190152Z 35020G25KT 01/00 A2994 RMK A01 T00110004  RH  096%=      5-min Rain = 0.01
KBO1 190153Z 35025G32KT 01/00 A2994 RMK A01 T00100004  RH  096%=      5-min Rain = 0
KBO1 190154Z 35025KT 01/00 A2994 RMK A01 T00080002  RH  095%=      5-min Rain = 0
KBO1 190155Z 35022G27KT 01/00 A2995 RMK A01 T00070001  RH  095%=      5-min Rain = 0
KBO1 190156Z 35023KT 01/00 A2995 RMK A01 T00070000  RH  095%=      5-min Rain = 0
KBO1 190157Z 35023G29KT 01/M00 A2995 RMK A01 T00061001  RH  096%=      5-min Rain = 0
KBO1 190158Z 35028KT 01/M00 A2995 RMK A01 T00051001  RH  096%=      5-min Rain = 0
KBO1 190159Z 35023G31KT 01/00 A2995 RMK A01 T000500-0  RH  096%=      5-min Rain = 0
KBO1 190200Z 35022KT 01/M00 A2995 RMK A01 T00051001  RH  096%=      5-min Rain = 0
KBO1 190201Z 35022KT 00/M00 A2995 RMK A01 T00041002  RH  096%=      5-min Rain = 0
KBO1 190202Z 35021KT 00/M00 A2996 RMK A01 T00031002  RH  096%=      5-min Rain = 0
KBO1 190203Z 35021G26KT 00/M00 A2996 RMK A01 T00031003  RH  096%=      5-min Rain = 0
KBO1 190204Z 35020G26KT 00/M00 A2996 RMK A01 T00021003  RH  097%=      5-min Rain = 0
KBO1 190205Z 35020KT 00/M00 A2996 RMK A01 T00021002  RH  097%=      5-min Rain = 0
KBO1 190206Z 35021KT 00/M00 A2996 RMK A01 T00021003  RH  097%=      5-min Rain = 0
KBO1 190207Z 35019KT 00/M00 A2996 RMK A01 T00021002  RH  097%=      5-min Rain = 0
KBO1 190208Z 36021G26KT 00/M00 A2996 RMK A01 T00021002  RH  097%=      5-min Rain = 0
KBO1 190209Z 35020KT 00/M00 A2996 RMK A01 T00021002  RH  098%=      5-min Rain = 0
KBO1 190210Z 35021KT 00/M00 A2996 RMK A01 T00021002  RH  098%=      5-min Rain = 0
KBO1 190211Z 35019KT 00/M00 A2996 RMK A01 T00021001  RH  098%=      5-min Rain = 0
KBO1 190212Z 35019KT 00/M00 A2996 RMK A01 T00021001  RH  098%=      5-min Rain = 0
KBO1 190213Z 35019KT 00/M00 A2996 RMK A01 T00021001  RH  098%=      5-min Rain = 0
KBO1 190214Z 35020KT 00/M00 A2996 RMK A01 T00011001  RH  098%=      5-min Rain = 0.01
KBO1 190215Z 35020KT 00/M00 A2997 RMK A01 T00011001  RH  098%=      5-min Rain = 0
KBO1 190216Z 35022G28KT 00/00 A2997 RMK A01 T000200-0  RH  099%=      5-min Rain = 0
KBO1 190217Z 35021KT 00/M00 A2997 RMK A01 T00011001  RH  099%=      5-min Rain = 0
KBO1 190218Z 35019KT 00/00 A2997 RMK A01 T00020000  RH  099%=      5-min Rain = 0
KBO1 190219Z 35025G32KT 00/00 A2997 RMK A01 T00020000  RH  099%=      5-min Rain = 0
KBO1 190220Z 36021G27KT 00/00 A2997 RMK A01 T00020001  RH  099%=      5-min Rain = 0
KBO1 190221Z 35020KT 00/00 A2998 RMK A01 T00030001  RH  099%=      5-min Rain = 0
KBO1 190222Z 36022KT 00/00 A2998 RMK A01 T00020001  RH  099%=      5-min Rain = 0
KBO1 190223Z 36020KT 00/00 A2998 RMK A01 T00020001  RH  099%=      5-min Rain = 0
KBO1 190224Z 36020G25KT 00/00 A2998 RMK A01 T00020001  RH  099%=      5-min Rain = 0
KBO1 190225Z 00018G23KT 00/00 A2998 RMK A01 T00020000  RH  099%=      5-min Rain = 0
KBO1 190226Z 00018KT 00/00 A2998 RMK A01 T00020000  RH  099%=      5-min Rain = 0
KBO1 190227Z 00019KT 00/00 A2998 RMK A01 T000100-0  RH  099%=      5-min Rain = 0
KBO1 190228Z 00024KT 00/M00 A2999 RMK A01 T00011001  RH  099%=      5-min Rain = 0
KBO1 190229Z 36024KT 00/M00 A2999 RMK A01 T00011001  RH  099%=      5-min Rain = 0
KBO1 190230Z 00023KT 00/M00 A2999 RMK A01 T00011001  RH  099%=      5-min Rain = 0
KBO1 190231Z 36024G29KT 00/00 A2999 RMK A01 T000000-1  RH  099%=      5-min Rain = 0
KBO1 190232Z 00025G32KT 00/00 A2999 RMK A01 T000000-1  RH  099%=      5-min Rain = 0
KBO1 190233Z 35023G29KT 00/M00 A2999 RMK A01 T00011001  RH  099%=      5-min Rain = 0
KBO1 190234Z 35025KT 00/00 A2999 RMK A01 T000000-1  RH  099%=      5-min Rain = 0
KBO1 190235Z 35024G29KT 00/00 A2999 RMK A01 T000000-1  RH  099%=      5-min Rain = 0
KBO1 190236Z 35018G23KT 00/M00 A2999 RMK A01 T00011001  RH  099%=      5-min Rain = 0
KBO1 190237Z 35023KT 00/00 A2999 RMK A01 T00-000-2  RH  099%=      5-min Rain = 0
KBO1 190238Z 35022KT 00/00 A2999 RMK A01 T000000-1  RH  099%=      5-min Rain = 0
KBO1 190239Z 35023KT 00/00 A2999 RMK A01 T000000-1  RH  099%=      5-min Rain = 0
KBO1 190240Z 35023KT 00/00 A30 RMK A01 T000000-1  RH  099%=      5-min Rain = 0
KBO1 190241Z 35020G25KT 00/00 A30 RMK A01 T000000-2  RH  099%=      5-min Rain = 0
KBO1 190242Z 35026KT 00/00 A30 RMK A01 T000000-1  RH  099%=      5-min Rain = 0
KBO1 190243Z 35021G26KT 00/00 A30 RMK A01 T00-000-2  RH  099%=      5-min Rain = 0
KBO1 190244Z 35022G27KT 00/00 A30 RMK A01 T00-000-2  RH  099%=      5-min Rain = 0
KBO1 190245Z 35023KT 00/00 A30 RMK A01 T000000-2  RH  099%=      5-min Rain = 0
KBO1 190246Z 34024KT 00/00 A30 RMK A01 T00-000-2  RH  099%=      5-min Rain = 0
KBO1 190247Z 34023KT 00/00 A30 RMK A01 T00-000-2  RH  099%=      5-min Rain = 0
KBO1 190248Z 34022G28KT 00/00 A30 RMK A01 T00-000-2  RH  099%=      5-min Rain = 0
KBO1 190249Z 35027KT M00/M00 A30 RMK A01 T10011002  RH  099%=      5-min Rain = 0
KBO1 190250Z 35025G31KT M00/M00 A30 RMK A01 T10011002  RH  099%=      5-min Rain = 0
KBO1 190251Z 34022KT 00/00 A30 RMK A01 T00-000-2  RH  099%=      5-min Rain = 0
KBO1 190252Z 35022G27KT 00/00 A30 RMK A01 T00-000-2  RH  099%=      5-min Rain = 0
KBO1 190253Z 35023G28KT M00/M00 A3001 RMK A01 T10011002  RH  099%=      5-min Rain = 0
KBO1 190254Z 35023KT M00/M00 A30 RMK A01 T10011002  RH  099%=      5-min Rain = 0
KBO1 190255Z 35022KT M00/M00 A3001 RMK A01 T10011002  RH  099%=      5-min Rain = 0
KBO1 190256Z 35025G30KT M00/M00 A3001 RMK A01 T10011002  RH  099%=      5-min Rain = 0
KBO1 190257Z 35022KT M00/M00 A3001 RMK A01 T10011002  RH  099%=      5-min Rain = 0
KBO1 190258Z 34020KT M00/M00 A3001 RMK A01 T10011002  RH  099%=      5-min Rain = 0
KBO1 190259Z 35021KT M00/M00 A3001 RMK A01 T10011002  RH  099%=      5-min Rain = 0
KBO1 190300Z 34022G27KT M00/M00 A3001 RMK A01 T10011002  RH  099%=      5-min Rain = 0
KBO1 190301Z 34024G29KT M00/M00 A3001 RMK A01 T10011002  RH  099%=      5-min Rain = 0
KBO1 190302Z 34021KT M00/M00 A3001 RMK A01 T10011002  RH  100%=      5-min Rain = 0
KBO1 190303Z 34023G28KT M00/M00 A3001 RMK A01 T10011002  RH  100%=      5-min Rain = 0
KBO1 190304Z 34021KT M00/M00 A3001 RMK A01 T10011001  RH  100%=      5-min Rain = 0
KBO1 190305Z 34019KT M00/M00 A3001 RMK A01 T10011002  RH  100%=      5-min Rain = 0
KBO1 190306Z 34019G24KT M00/M00 A3001 RMK A01 T10011001  RH  100%=      5-min Rain = 0
KBO1 190307Z 34018G23KT M00/M00 A3002 RMK A01 T10011001  RH  100%=      5-min Rain = 0
KBO1 190308Z 34020KT M00/M00 A3002 RMK A01 T10011001  RH  100%=      5-min Rain = 0
KBO1 190309Z 34020G27KT M00/M00 A3002 RMK A01 T10021002  RH  100%=      5-min Rain = 0
KBO1 190310Z 34023KT M00/M00 A3002 RMK A01 T10011002  RH  100%=      5-min Rain = 0
KBO1 190311Z 34022KT M00/M00 A3002 RMK A01 T10011001  RH  100%=      5-min Rain = 0
KBO1 190312Z 35022KT M00/M00 A3002 RMK A01 T10011001  RH  100%=      5-min Rain = 0
KBO1 190313Z 35021KT M00/M00 A3002 RMK A01 T10011001  RH  100%=      5-min Rain = 0
KBO1 190314Z 35020KT M00/M00 A3002 RMK A01 T10021002  RH  100%=      5-min Rain = 0
KBO1 190315Z 35022KT M00/M00 A3002 RMK A01 T10011001  RH  100%=      5-min Rain = 0
KBO1 190316Z 34020G26KT M00/M00 A3002 RMK A01 T10011001  RH  100%=      5-min Rain = 0
KBO1 190317Z 35025G31KT M00/M00 A3002 RMK A01 T10011002  RH  100%=      5-min Rain = 0
KBO1 190318Z 35022KT M00/M00 A3003 RMK A01 T10021002  RH  100%=      5-min Rain = 0
KBO1 190319Z 35025KT M00/M00 A3003 RMK A01 T10021002  RH  100%=      5-min Rain = 0
KBO1 190320Z 35022KT M00/M00 A3003 RMK A01 T10021002  RH  100%=      5-min Rain = 0
KBO1 190321Z 35026KT M00/M00 A3002 RMK A01 T10021002  RH  100%=      5-min Rain = 0
KBO1 190322Z 34024KT M00/M00 A3003 RMK A01 T10021002  RH  100%=      5-min Rain = 0
KBO1 190323Z 35023KT M00/M00 A3003 RMK A01 T10021002  RH  100%=      5-min Rain = 0
KBO1 190324Z 34021KT M00/M00 A3003 RMK A01 T10021002  RH  100%=      5-min Rain = 0
KBO1 190325Z 34022KT M00/M00 A3003 RMK A01 T10021002  RH  100%=      5-min Rain = 0
KBO1 190326Z 35023G28KT M00/M00 A3003 RMK A01 T10021002  RH  100%=      5-min Rain = 0
KBO1 190327Z 35023KT M00/M00 A3003 RMK A01 T10021002  RH  100%=      5-min Rain = 0
KBO1 190328Z 34021G26KT M00/M00 A3003 RMK A01 T10021002  RH  100%=      5-min Rain = 0
KBO1 190329Z 35024KT M00/M00 A3003 RMK A01 T10021002  RH  100%=      5-min Rain = 0
KBO1 190330Z 34022G28KT M00/M00 A3003 RMK A01 T10021002  RH  100%=      5-min Rain = 0
KBO1 190331Z 34025KT M00/M00 A3003 RMK A01 T10021002  RH  100%=      5-min Rain = 0
KBO1 190332Z 34025G30KT M00/M00 A3003 RMK A01 T10021002  RH  100%=      5-min Rain = 0
KBO1 190333Z 35027KT M00/M00 A3003 RMK A01 T10021002  RH  100%=      5-min Rain = 0
KBO1 190334Z 35029G35KT M00/M00 A3004 RMK A01 T10031003  RH  100%=      5-min Rain = 0
KBO1 190335Z 35029G35KT M00/M00 A3003 RMK A01 T10031003  RH  100%=      5-min Rain = 0
KBO1 190336Z 34027KT M00/M00 A3004 RMK A01 T10021002  RH  100%=      5-min Rain = 0
KBO1 190337Z 34027G32KT M00/M00 A3004 RMK A01 T10031003  RH  100%=      5-min Rain = 0
KBO1 190338Z 34026G31KT M00/M00 A3004 RMK A01 T10031003  RH  100%=      5-min Rain = 0
KBO1 190339Z 34024KT M00/M00 A3004 RMK A01 T10031003  RH  100%=      5-min Rain = 0
KBO1 190340Z 35029KT M00/M00 A3004 RMK A01 T10031003  RH  100%=      5-min Rain = 0
KBO1 190341Z 35026G31KT M00/M00 A3004 RMK A01 T10031004  RH  100%=      5-min Rain = 0
KBO1 190342Z 34025KT M00/M00 A3004 RMK A01 T10041004  RH  100%=      5-min Rain = 0
KBO1 190343Z 34031KT M00/M00 A3004 RMK A01 T10041004  RH  100%=      5-min Rain = 0
KBO1 190344Z 35030KT M00/M00 A3004 RMK A01 T10041004  RH  100%=      5-min Rain = 0
KBO1 190345Z 35026KT M00/M01 A3005 RMK A01 T10041005  RH  100%=      5-min Rain = 0
KBO1 190346Z 34028G34KT M01/M01 A3004 RMK A01 T10051005  RH  100%=      5-min Rain = 0
KBO1 190347Z 35029KT M01/M01 A3004 RMK A01 T10051005  RH  100%=      5-min Rain = 0
KBO1 190348Z 35028G37KT M01/M01 A3005 RMK A01 T10051005  RH  100%=      5-min Rain = 0
KBO1 190349Z 35027KT M01/M01 A3005 RMK A01 T10051005  RH  100%=      5-min Rain = 0
KBO1 190350Z 35025G30KT M01/M01 A3005 RMK A01 T10051005  RH  100%=      5-min Rain = 0
KBO1 190351Z 35026G31KT M01/M01 A3005 RMK A01 T10061006  RH  100%=      5-min Rain = 0
KBO1 190352Z 35027G32KT M01/M01 A3005 RMK A01 T10061006  RH  100%=      5-min Rain = 0.01
KBO1 190353Z 35026G31KT M01/M01 A3005 RMK A01 T10051006  RH  100%=      5-min Rain = 0
KBO1 190354Z 35031KT M01/M01 A3005 RMK A01 T10061006  RH  100%=      5-min Rain = 0
KBO1 190355Z 35027G32KT M01/M01 A3005 RMK A01 T10061006  RH  100%=      5-min Rain = 0
KBO1 190356Z 35026KT M01/M01 A3005 RMK A01 T10061006  RH  100%=      5-min Rain = 0
KBO1 190357Z 35026KT M01/M01 A3005 RMK A01 T10061006  RH  100%=      5-min Rain = 0
KBO1 190358Z 35025G31KT M01/M01 A3005 RMK A01 T10061006  RH  100%=      5-min Rain = 0
KBO1 190359Z 35027G33KT M01/M01 A3005 RMK A01 T10061006  RH  100%=      5-min Rain = 0
KBO1 190400Z 35025KT M01/M01 A3005 RMK A01 T10071007  RH  100%=      5-min Rain = 0
KBO1 190401Z 35024KT M01/M01 A3005 RMK A01 T10061006  RH  100%=      5-min Rain = 0
KBO1 190402Z 34024G29KT M01/M01 A3005 RMK A01 T10061006  RH  100%=      5-min Rain = 0
KBO1 190403Z 35023G29KT M01/M01 A3005 RMK A01 T10061006  RH  100%=      5-min Rain = 0
KBO1 190404Z 35024G31KT M01/M01 A3006 RMK A01 T10061006  RH  100%=      5-min Rain = 0
KBO1 190405Z 35025G30KT M01/M01 A3006 RMK A01 T10061006  RH  100%=      5-min Rain = 0
KBO1 190406Z 35022G27KT M01/M01 A3006 RMK A01 T10071007  RH  100%=      5-min Rain = 0
KBO1 190407Z 35024G29KT M01/M01 A3005 RMK A01 T10071007  RH  100%=      5-min Rain = 0
KBO1 190408Z 35023G31KT M01/M01 A3006 RMK A01 T10071007  RH  100%=      5-min Rain = 0
KBO1 190409Z 35024KT M01/M01 A3006 RMK A01 T10071007  RH  100%=      5-min Rain = 0
KBO1 190410Z 34029KT M01/M01 A3006 RMK A01 T10061007  RH  100%=      5-min Rain = 0
KBO1 190411Z 35024G30KT M01/M01 A3006 RMK A01 T10071007  RH  100%=      5-min Rain = 0
KBO1 190412Z 35024G30KT M01/M01 A3006 RMK A01 T10071007  RH  100%=      5-min Rain = 0
KBO1 190413Z 35023KT M01/M01 A3006 RMK A01 T10071007  RH  100%=      5-min Rain = 0
KBO1 190414Z 35025KT M01/M01 A3006 RMK A01 T10071007  RH  100%=      5-min Rain = 0
KBO1 190415Z 35026KT M01/M01 A3006 RMK A01 T10071007  RH  100%=      5-min Rain = 0
KBO1 190416Z 34022KT M01/M01 A3006 RMK A01 T10071007  RH  100%=      5-min Rain = 0
KBO1 190417Z 34022G27KT M01/M01 A3006 RMK A01 T10071007  RH  100%=      5-min Rain = 0
KBO1 190418Z 35023KT M01/M01 A3006 RMK A01 T10071007  RH  100%=      5-min Rain = 0
KBO1 190419Z 35023KT M01/M01 A3006 RMK A01 T10071007  RH  100%=      5-min Rain = 0
KBO1 190420Z 35025KT M01/M01 A3007 RMK A01 T10071007  RH  100%=      5-min Rain = 0
KBO1 190421Z 35022KT M01/M01 A3007 RMK A01 T10071007  RH  100%=      5-min Rain = 0
KBO1 190422Z 34022KT M01/M01 A3007 RMK A01 T10061007  RH  100%=      5-min Rain = 0
KBO1 190423Z 35022KT M01/M01 A3007 RMK A01 T10071007  RH  100%=      5-min Rain = 0
KBO1 190424Z 34021KT M01/M01 A3007 RMK A01 T10071007  RH  100%=      5-min Rain = 0
KBO1 190425Z 34021KT M01/M01 A3007 RMK A01 T10071007  RH  100%=      5-min Rain = 0
KBO1 190426Z 35022KT M01/M01 A3007 RMK A01 T10071007  RH  100%=      5-min Rain = 0
KBO1 190427Z 34021KT M01/M01 A3007 RMK A01 T10071007  RH  100%=      5-min Rain = 0
KBO1 190428Z 34022G27KT M01/M01 A3007 RMK A01 T10071007  RH  100%=      5-min Rain = 0
KBO1 190429Z 34020KT M01/M01 A3007 RMK A01 T10071007  RH  100%=      5-min Rain = 0
KBO1 190430Z 34023KT M01/M01 A3007 RMK A01 T10071007  RH  100%=      5-min Rain = 0
KBO1 190431Z 35023G28KT M01/M01 A3007 RMK A01 T10071007  RH  100%=      5-min Rain = 0
KBO1 190432Z 35026G31KT M01/M01 A3007 RMK A01 T10071007  RH  100%=      5-min Rain = 0
KBO1 190433Z 35024KT M01/M01 A3007 RMK A01 T10071007  RH  100%=      5-min Rain = 0
KBO1 190434Z 34023KT M01/M01 A3007 RMK A01 T10071007  RH  100%=      5-min Rain = 0
KBO1 190435Z 34024G29KT M01/M01 A3007 RMK A01 T10071007  RH  100%=      5-min Rain = 0
KBO1 190436Z 34024KT M01/M01 A3007 RMK A01 T10071007  RH  100%=      5-min Rain = 0
KBO1 190437Z 34025G30KT M01/M01 A3007 RMK A01 T10071007  RH  100%=      5-min Rain = 0
KBO1 190438Z 34026KT M01/M01 A3007 RMK A01 T10071007  RH  100%=      5-min Rain = 0
KBO1 190439Z 34028KT M01/M01 A3007 RMK A01 T10071007  RH  100%=      5-min Rain = 0
KBO1 190440Z 34027G32KT M01/M01 A3007 RMK A01 T10071007  RH  100%=      5-min Rain = 0
KBO1 190441Z 34030G35KT M01/M01 A3007 RMK A01 T10071007  RH  100%=      5-min Rain = 0
KBO1 190442Z 35030G36KT M01/M01 A3007 RMK A01 T10081008  RH  100%=      5-min Rain = 0
KBO1 190443Z 35033G39KT M01/M01 A3008 RMK A01 T10091009  RH  100%=      5-min Rain = 0
KBO1 190444Z 34030G36KT M01/M01 A3008 RMK A01 T10091009  RH  100%=      5-min Rain = 0
KBO1 190445Z 35028G34KT M01/M01 A3008 RMK A01 T10091009  RH  100%=      5-min Rain = 0
KBO1 190446Z 34025G30KT M01/M01 A3008 RMK A01 T10091009  RH  100%=      5-min Rain = 0
KBO1 190447Z 35026KT M01/M01 A3008 RMK A01 T10091009  RH  100%=      5-min Rain = 0
KBO1 190448Z 34025KT M01/M01 A3008 RMK A01 T10091009  RH  100%=      5-min Rain = 0
KBO1 190449Z 35027KT M01/M01 A3009 RMK A01 T10091009  RH  100%=      5-min Rain = 0
KBO1 190450Z 35024KT M01/M01 A3009 RMK A01 T10091009  RH  100%=      5-min Rain = 0
KBO1 190451Z 35026KT M01/M01 A3009 RMK A01 T10091009  RH  100%=      5-min Rain = 0
KBO1 190452Z 35024KT M01/M01 A3009 RMK A01 T10091010  RH  100%=      5-min Rain = 0
KBO1 190453Z 35025KT M01/M01 A3009 RMK A01 T10091010  RH  100%=      5-min Rain = 0
KBO1 190454Z 35023G28KT M01/M01 A3009 RMK A01 T10101011  RH  099%=      5-min Rain = 0
KBO1 190455Z 35023G28KT M01/M01 A3009 RMK A01 T10091011  RH  099%=      5-min Rain = 0
KBO1 190456Z 34020KT M01/M01 A3009 RMK A01 T10091011  RH  099%=      5-min Rain = 0
KBO1 190457Z 34020KT M01/M01 A3009 RMK A01 T10091011  RH  099%=      5-min Rain = 0
KBO1 190458Z 34022KT M01/M01 A3009 RMK A01 T10091011  RH  099%=      5-min Rain = 0
KBO1 190459Z 34026KT M01/M01 A3009 RMK A01 T10101012  RH  098%=      5-min Rain = 0
KBO1 190500Z 34024KT M01/M01 A3009 RMK A01 T10101012  RH  098%=      5-min Rain = 0
KBO1 190501Z 34025KT M01/M01 A3009 RMK A01 T10101013  RH  098%=      5-min Rain = 0
KBO1 190502Z 34028G34KT M01/M01 A3009 RMK A01 T10111014  RH  098%=      5-min Rain = 0
KBO1 190503Z 34026G32KT M01/M02 A3009 RMK A01 T10111015  RH  097%=      5-min Rain = 0
KBO1 190504Z 34026KT M01/M02 A3009 RMK A01 T10121016  RH  097%=      5-min Rain = 0
KBO1 190505Z 34028G34KT M01/M02 A3009 RMK A01 T10121017  RH  096%=      5-min Rain = 0
KBO1 190506Z 34027KT M01/M02 A3009 RMK A01 T10131018  RH  096%=      5-min Rain = 0
KBO1 190507Z 35026KT M01/M02 A3009 RMK A01 T10131019  RH  096%=      5-min Rain = 0
KBO1 190508Z 34027KT M01/M02 A3009 RMK A01 T10131020  RH  095%=      5-min Rain = 0
KBO1 190509Z 34024G29KT M01/M02 A3009 RMK A01 T10141021  RH  095%=      5-min Rain = 0
KBO1 190510Z 34025G30KT M01/M02 A3009 RMK A01 T10141021  RH  095%=      5-min Rain = 0
KBO1 190511Z 34026G31KT M01/M02 A301 RMK A01 T10141022  RH  095%=      5-min Rain = 0
KBO1 190512Z 34024G29KT M01/M02 A301 RMK A01 T10141022  RH  095%=      5-min Rain = 0
KBO1 190513Z 34025G30KT M01/M02 A301 RMK A01 T10141022  RH  094%=      5-min Rain = 0
KBO1 190514Z 34021G27KT M01/M02 A301 RMK A01 T10141022  RH  094%=      5-min Rain = 0
KBO1 190515Z 34023KT M02/M02 A301 RMK A01 T10151023  RH  094%=      5-min Rain = 0
KBO1 190516Z 34021G26KT M02/M02 A301 RMK A01 T10151023  RH  094%=      5-min Rain = 0
KBO1 190517Z 34024G29KT M02/M02 A301 RMK A01 T10151023  RH  094%=      5-min Rain = 0
KBO1 190518Z 34024KT M02/M02 A301 RMK A01 T10151023  RH  094%=      5-min Rain = 0
KBO1 190519Z 34024G30KT M02/M02 A301 RMK A01 T10151023  RH  094%=      5-min Rain = 0
KBO1 190520Z 34023KT M02/M02 A301 RMK A01 T10151023  RH  094%=      5-min Rain = 0
KBO1 190521Z 34023G28KT M02/M02 A301 RMK A01 T10151023  RH  094%=      5-min Rain = 0
KBO1 190522Z 34024KT M02/M02 A301 RMK A01 T10151023  RH  094%=      5-min Rain = 0
KBO1 190523Z 34023KT M01/M02 A301 RMK A01 T10141023  RH  094%=      5-min Rain = 0
KBO1 190524Z 34024KT M02/M02 A301 RMK A01 T10151024  RH  094%=      5-min Rain = 0
KBO1 190525Z 34021KT M02/M02 A301 RMK A01 T10151024  RH  094%=      5-min Rain = 0
KBO1 190526Z 34023G28KT M02/M02 A301 RMK A01 T10151024  RH  094%=      5-min Rain = 0
KBO1 190527Z 34021KT M02/M02 A3011 RMK A01 T10151024  RH  094%=      5-min Rain = 0
KBO1 190528Z 34024KT M01/M02 A3011 RMK A01 T10141023  RH  094%=      5-min Rain = 0
KBO1 190529Z 34019KT M02/M02 A3011 RMK A01 T10151024  RH  094%=      5-min Rain = 0
KBO1 190530Z 34022KT M02/M02 A3011 RMK A01 T10151024  RH  093%=      5-min Rain = 0
KBO1 190531Z 34021KT M02/M02 A3011 RMK A01 T10151024  RH  093%=      5-min Rain = 0
KBO1 190532Z 34022KT M02/M02 A3011 RMK A01 T10151024  RH  093%=      5-min Rain = 0
KBO1 190533Z 34022KT M02/M02 A3011 RMK A01 T10151024  RH  093%=      5-min Rain = 0
KBO1 190534Z 34020G25KT M02/M02 A3011 RMK A01 T10151024  RH  093%=      5-min Rain = 0
KBO1 190535Z 34020KT M02/M02 A3011 RMK A01 T10151024  RH  094%=      5-min Rain = 0
KBO1 190536Z 34021KT M02/M02 A3011 RMK A01 T10151024  RH  094%=      5-min Rain = 0
KBO1 190537Z 34020KT M02/M02 A3011 RMK A01 T10151024  RH  094%=      5-min Rain = 0
KBO1 190538Z 34021KT M02/M02 A3011 RMK A01 T10151024  RH  094%=      5-min Rain = 0
KBO1 190539Z 34020KT M02/M02 A3011 RMK A01 T10151024  RH  094%=      5-min Rain = 0
KBO1 190540Z 34021KT M02/M02 A3011 RMK A01 T10151024  RH  094%=      5-min Rain = 0
KBO1 190541Z 34020G25KT M02/M02 A3011 RMK A01 T10151024  RH  094%=      5-min Rain = 0
KBO1 190542Z 34019KT M02/M02 A3011 RMK A01 T10151024  RH  094%=      5-min Rain = 0
KBO1 190543Z 34021KT M02/M02 A3012 RMK A01 T10151024  RH  094%=      5-min Rain = 0
KBO1 190544Z 34019KT M02/M02 A3012 RMK A01 T10151024  RH  094%=      5-min Rain = 0
KBO1 190545Z 34021KT M02/M02 A3012 RMK A01 T10151024  RH  094%=      5-min Rain = 0
KBO1 190546Z 34022KT M02/M02 A3012 RMK A01 T10151024  RH  094%=      5-min Rain = 0
KBO1 190547Z 34020KT M02/M02 A3012 RMK A01 T10151024  RH  094%=      5-min Rain = 0
KBO1 190548Z 34020G28KT M02/M02 A3012 RMK A01 T10151024  RH  094%=      5-min Rain = 0
KBO1 190549Z 34020G26KT M02/M02 A3012 RMK A01 T10151024  RH  094%=      5-min Rain = 0
KBO1 190550Z 34021KT M02/M02 A3012 RMK A01 T10151024  RH  094%=      5-min Rain = 0
KBO1 190551Z 34023KT M01/M02 A3012 RMK A01 T10141023  RH  094%=      5-min Rain = 0
KBO1 190552Z 34019KT M01/M02 A3012 RMK A01 T10141023  RH  093%=      5-min Rain = 0
KBO1 190553Z 34020KT M01/M02 A3012 RMK A01 T10141024  RH  093%=      5-min Rain = 0
KBO1 190554Z 34020KT M01/M02 A3012 RMK A01 T10141024  RH  093%=      5-min Rain = 0
KBO1 190555Z 34022KT M01/M02 A3012 RMK A01 T10141024  RH  093%=      5-min Rain = 0
KBO1 190556Z 34020G28KT M01/M02 A3012 RMK A01 T10141024  RH  093%=      5-min Rain = 0
KBO1 190557Z 33022KT M01/M02 A3012 RMK A01 T10141024  RH  093%=      5-min Rain = 0
KBO1 190558Z 34022KT M01/M02 A3012 RMK A01 T10141024  RH  093%=      5-min Rain = 0
KBO1 190559Z 34022KT M01/M02 A3012 RMK A01 T10141024  RH  093%=      5-min Rain = 0

Page generated in 0.092 seconds.